Zarling — WDD7883 — position and weather

sailwx.info

Track history (hours):
 
Tides and Currents Weather Stations Pressure Air Temp Water Temp Dewpoint Dewpoint Depression Visibility Wind Speed Wind Dir Waves Ship Positions

Zarling

Owner: Clean Rivers Co-op, Portland, OR. More information available from US FCC via Universal Licensing System.

Last reported at 2017-Mar-27 21:31 UTC. Time now 2017-Mar-27 22:18 UTC.
Position N 46°12' W 123°23'.

Length 12 m.

Type: Pollution control. MMSI: 3699126.

Date/timePositionNaut miles runAvg speedWind from/ knotsBaromVisibWave heightAir tempDewpointWater temp
2017-Mar-27 21:31N 46°12' W 123°23'322955.4
2017-Mar-27 21:31N 45°52' W 122°48'211319.6
2017-Mar-27 21:30N 46°10' W 123°03'4036034.6
2017-Mar-27 21:30N 45°33' W 122°42'401264.5
2017-Mar-27 21:28N 46°10' W 123°03'0 0.0
2017-Mar-27 20:33N 46°10' W 123°03'21612.3
2017-Mar-27 20:31N 45°52' W 122°48'32835.2
2017-Mar-27 20:28N 46°12' W 123°23'14129.2
2017-Mar-27 20:22N 46°10' W 123°03'40235.2
2017-Mar-27 20:12N 45°33' W 122°42'0 0.0
2017-Mar-27 19:33N 45°33' W 122°42'492432.1
2017-Mar-27 19:32N 46°12' W 123°23'322619.5
2017-Mar-27 19:31N 45°52' W 122°48'211297.2
2017-Mar-27 19:30N 46°10' W 123°03'0 0.1
2017-Mar-27 19:25N 46°10' W 123°03'4046.1
2017-Mar-27 18:33N 45°33' W 122°42'4072069.2
2017-Mar-27 18:33N 46°10' W 123°03'0 0.2
2017-Mar-27 18:31N 46°10' W 123°03'2110936.5
2017-Mar-27 18:31N 45°52' W 122°48'32110.8
2017-Mar-27 18:13N 46°12' W 123°23'1420.6
2017-Mar-27 17:33N 46°10' W 123°03'21637.8
2017-Mar-27 17:31N 45°52' W 122°48'191104.8
2017-Mar-27 17:30N 45°33' W 122°42'492188.8
2017-Mar-27 17:28N 46°12' W 123°23'141620.7
2017-Mar-27 17:28N 46°10' W 123°03'4043.5
2017-Mar-27 16:33N 45°33' W 122°42'492366.3
2017-Mar-27 16:32N 46°12' W 123°23'141395.6
2017-Mar-27 16:31N 46°10' W 123°03'0 0.3
2017-Mar-27 16:30N 46°10' W 123°03'21637.8
2017-Mar-27 16:28N 45°52' W 122°48'1921.1
2017-Mar-27 15:33N 45°33' W 122°42'401347.1
2017-Mar-27 15:31N 46°10' W 123°03'215887.5
2017-Mar-27 15:31N 45°52' W 122°48'32835.1
2017-Mar-27 15:28N 46°12' W 123°23'14512.7
2017-Mar-27 15:27N 46°10' W 123°03'4044.4
2017-Mar-27 14:33N 45°33' W 122°42'19590.0
2017-Mar-27 14:31N 45°52' W 122°48'32817.3
2017-Mar-27 14:28N 46°12' W 123°23'14518.0
2017-Mar-27 14:27N 46°10' W 123°03'0 0.1
2017-Mar-27 14:22N 46°10' W 123°03'0 0.0
2017-Mar-27 13:33N 46°10' W 123°03'4036034.6
2017-Mar-27 13:33N 45°33' W 122°42'401334.8
2017-Mar-27 13:31N 46°10' W 123°03'217655.6
2017-Mar-27 13:31N 45°52' W 122°48'32361.3
2017-Mar-27 13:25N 46°12' W 123°23'1415.9
2017-Mar-27 12:33N 46°10' W 123°03'4048046.1
2017-Mar-27 12:33N 45°33' W 122°42'492274.1
2017-Mar-27 12:31N 46°12' W 123°23'141570.1
2017-Mar-27 12:31N 46°10' W 123°03'218506.2
2017-Mar-27 12:31N 45°52' W 122°48'1920.0
2017-Mar-27 11:33N 45°33' W 122°42'492245.0
2017-Mar-27 11:31N 46°12' W 123°23'141674.8
2017-Mar-27 11:31N 46°10' W 123°03'216379.7
2017-Mar-27 11:31N 45°52' W 122°48'211319.6
2017-Mar-27 11:30N 46°10' W 123°03'4042.1
2017-Mar-27 10:33N 45°33' W 122°42'492273.9
2017-Mar-27 10:31N 46°12' W 123°23'141620.7
2017-Mar-27 10:31N 46°10' W 123°03'215888.9
2017-Mar-27 10:31N 45°52' W 122°48'21324.3
2017-Mar-27 10:27N 46°10' W 123°03'1415.1
2017-Mar-27 09:31N 46°12' W 123°23'141932.4
2017-Mar-27 09:31N 46°10' W 123°03'21398.7
2017-Mar-27 09:28N 45°52' W 122°48'211342.8
2017-Mar-27 09:27N 46°10' W 123°03'4024023.1
2017-Mar-27 09:27N 45°33' W 122°42'0 0.0
2017-Mar-27 08:33N 45°33' W 122°42'492244.7
2017-Mar-27 08:31N 46°12' W 123°23'141794.4
2017-Mar-27 08:31N 46°10' W 123°03'216379.7
2017-Mar-27 08:31N 45°52' W 122°48'211275.6
2017-Mar-27 08:30N 46°10' W 123°03'1414.4
2017-Mar-27 07:32N 46°12' W 123°23'322810.9
2017-Mar-27 07:31N 45°52' W 122°48'211275.3
2017-Mar-27 07:30N 46°10' W 123°03'0 0.2
2017-Mar-27 07:28N 46°10' W 123°03'401896.8
2017-Mar-27 07:27N 45°33' W 122°42'0 0.0
2017-Mar-27 06:33N 45°33' W 122°42'492303.8
2017-Mar-27 06:31N 46°12' W 123°23'322744.3
2017-Mar-27 06:31N 45°52' W 122°48'21325.7
2017-Mar-27 06:27N 46°10' W 123°03'0 0.2
2017-Mar-27 06:25N 46°10' W 123°03'1415.6
2017-Mar-27 05:31N 46°12' W 123°23'142009.7
2017-Mar-27 05:31N 46°10' W 123°03'0 0.3
2017-Mar-27 05:30N 46°10' W 123°03'21643.2
2017-Mar-27 05:28N 45°52' W 122°48'191160.0
2017-Mar-27 05:27N 45°33' W 122°42'4044.5
2017-Mar-27 04:33N 46°10' W 123°03'4024019.7
2017-Mar-27 04:33N 45°33' W 122°42'492216.3
2017-Mar-27 04:31N 46°12' W 123°23'142009.7
2017-Mar-27 04:31N 46°10' W 123°03'21388.5
2017-Mar-27 04:28N 45°52' W 122°48'2123.2
2017-Mar-27 03:33N 46°10' W 123°03'4028823.7
2017-Mar-27 03:33N 45°33' W 122°42'401441.4
2017-Mar-27 03:31N 46°10' W 123°03'214503.3
2017-Mar-27 03:31N 45°52' W 122°48'32231.4
2017-Mar-27 03:23N 46°12' W 123°23'1415.0
2017-Mar-27 02:27N 46°10' W 123°03'21253.4
2017-Mar-27 02:22N 45°52' W 122°48'2186.7
2017-Mar-27 02:07N 46°10' W 123°03'0 0.0
2017-Mar-27 01:33N 46°10' W 123°03'0 0.2
2017-Mar-27 01:31N 46°10' W 123°03'21384.7
2017-Mar-27 01:28N 45°52' W 122°48'32132.2
2017-Mar-27 01:13N 46°12' W 123°23'1420.7
2017-Mar-27 00:33N 46°10' W 123°03'4028823.7
2017-Mar-27 00:33N 45°33' W 122°42'401441.4
2017-Mar-27 00:31N 46°10' W 123°03'14293.8
2017-Mar-27 00:28N 46°12' W 123°23'32562.3
2017-Mar-27 00:25N 45°52' W 122°48'1922.3
2017-Mar-26 23:33N 45°33' W 122°42'49634.4
2017-Mar-26 23:28N 46°12' W 123°23'145582.6
2017-Mar-26 23:28N 46°10' W 123°03'214503.3
2017-Mar-26 23:28N 45°52' W 122°48'211366.7
2017-Mar-26 23:27N 46°10' W 123°03'4044.4
2017-Mar-26 22:33N 45°33' W 122°42'491903.3
2017-Mar-26 22:31N 46°12' W 123°23'32554.1
2017-Mar-26 22:28N 45°52' W 122°48'211366.7
2017-Mar-26 22:27N 46°10' W 123°03'0 0.2
2017-Mar-26 22:25N 46°10' W 123°03'0 0.0
2017-Mar-26 21:33N 46°10' W 123°03'0 0.2
2017-Mar-26 21:31N 46°10' W 123°03'214253.1
2017-Mar-26 21:31N 45°52' W 122°48'19290.0
2017-Mar-26 21:27N 45°33' W 122°42'49277.1
2017-Mar-26 21:16N 46°12' W 123°23'3242.3
2017-Mar-26 20:31N 45°52' W 122°48'211342.8
2017-Mar-26 20:30N 46°10' W 123°03'0 0.2
2017-Mar-26 20:28N 46°10' W 123°03'401736.8
2017-Mar-26 20:27N 45°33' W 122°42'49388.3
2017-Mar-26 20:19N 46°12' W 123°23'4962.7
2017-Mar-26 19:33N 45°33' W 122°42'40837.9
2017-Mar-26 19:30N 46°10' W 123°03'0 0.2
2017-Mar-26 19:28N 46°10' W 123°03'213827.8
2017-Mar-26 19:28N 45°52' W 122°48'32350.3
2017-Mar-26 19:22N 46°12' W 123°23'1417.0
2017-Mar-26 18:33N 46°10' W 123°03'401426.9
2017-Mar-26 18:31N 45°33' W 122°42'193163.7
2017-Mar-26 18:31N 45°52' W 122°48'21469.6
2017-Mar-26 18:28N 46°10' W 123°03'0 0.0
2017-Mar-26 17:31N 46°10' W 123°03'213328.5
2017-Mar-26 17:31N 45°52' W 122°48'21324.3
2017-Mar-26 17:27N 46°10' W 123°03'401486.0
2017-Mar-26 17:25N 45°33' W 122°42'4045.9
2017-Mar-26 16:33N 46°10' W 123°03'401533.4
2017-Mar-26 16:31N 45°33' W 122°42'4020594.1
2017-Mar-26 16:31N 46°10' W 123°03'213645.5
2017-Mar-26 16:31N 45°52' W 122°48'2122.0
2017-Mar-26 15:33N 46°10' W 123°03'401533.2
2017-Mar-26 15:31N 45°33' W 122°42'192485.0
2017-Mar-26 15:31N 45°52' W 122°48'21493.9
2017-Mar-26 15:28N 46°10' W 123°03'1440.0
2017-Mar-26 15:07N 46°12' W 123°23'1424.3
2017-Mar-26 14:33N 46°10' W 123°03'401517.2
2017-Mar-26 14:31N 45°33' W 122°42'4987554.0
2017-Mar-26 14:31N 46°12' W 123°23'1416747.7
2017-Mar-26 14:31N 46°10' W 123°03'213062.2
2017-Mar-26 14:31N 45°52' W 122°48'2122.0
2017-Mar-26 13:33N 46°10' W 123°03'401486.0
2017-Mar-26 13:31N 45°33' W 122°42'4036039.6
2017-Mar-26 13:31N 46°10' W 123°03'14282.3
2017-Mar-26 13:28N 46°12' W 123°23'32300.1
2017-Mar-26 13:22N 45°52' W 122°48'1922.9
2017-Mar-26 12:31N 45°33' W 122°42'4048052.8
2017-Mar-26 12:31N 46°10' W 123°03'213645.5
2017-Mar-26 12:31N 45°52' W 122°48'32738.8
2017-Mar-26 12:28N 46°12' W 123°23'14194.0
2017-Mar-26 12:24N 46°10' W 123°03'1416.5
2017-Mar-26 11:33N 46°12' W 123°23'142512.3
2017-Mar-26 11:33N 46°10' W 123°03'40524.1
2017-Mar-26 11:28N 45°33' W 122°42'4048052.8
2017-Mar-26 11:28N 46°10' W 123°03'212835.4
2017-Mar-26 11:28N 45°52' W 122°48'2122.6
2017-Mar-26 10:31N 46°10' W 123°03'14851.6
2017-Mar-26 10:30N 46°12' W 123°23'142093.6
2017-Mar-26 10:30N 46°10' W 123°03'21612.3
2017-Mar-26 10:28N 45°52' W 122°48'1920.5
2017-Mar-26 09:31N 45°33' W 122°42'192577.8
2017-Mar-26 09:31N 45°52' W 122°48'21497.1
2017-Mar-26 09:28N 46°10' W 123°03'0 0.3
2017-Mar-26 09:27N 46°10' W 123°03'14312.1
2017-Mar-26 09:24N 46°12' W 123°23'0 0.0
2017-Mar-26 08:33N 46°12' W 123°23'142644.6
2017-Mar-26 08:33N 46°10' W 123°03'401501.2
2017-Mar-26 08:31N 45°33' W 122°42'192676.2
2017-Mar-26 08:31N 45°52' W 122°48'21490.7
2017-Mar-26 08:28N 46°10' W 123°03'0 0.0
2017-Mar-26 07:33N 46°10' W 123°03'401486.0
2017-Mar-26 07:31N 45°33' W 122°42'192784.1
2017-Mar-26 07:31N 45°52' W 122°48'323201.7
2017-Mar-26 07:30N 46°12' W 123°23'14411.8
2017-Mar-26 07:28N 46°10' W 123°03'1415.2
2017-Mar-26 06:33N 46°12' W 123°23'142009.9
2017-Mar-26 06:33N 46°10' W 123°03'401566.7
2017-Mar-26 06:31N 45°33' W 122°42'40144103.6
2017-Mar-26 06:31N 46°10' W 123°03'21365.8
2017-Mar-26 06:28N 45°52' W 122°48'2122.6
2017-Mar-26 05:31N 46°10' W 123°03'0 0.2
2017-Mar-26 05:30N 46°10' W 123°03'21643.2
2017-Mar-26 05:28N 45°52' W 122°48'19454.9
2017-Mar-26 05:25N 45°33' W 122°42'49223.9
2017-Mar-26 05:12N 46°12' W 123°23'1421.2
2017-Mar-26 04:33N 46°10' W 123°03'0 0.2
2017-Mar-26 04:31N 46°10' W 123°03'212639.9
2017-Mar-26 04:31N 45°52' W 122°48'323201.7
2017-Mar-26 04:30N 46°12' W 123°23'49587.6
2017-Mar-26 04:25N 45°33' W 122°42'4045.9
2017-Mar-26 03:33N 46°10' W 123°03'0 0.2
2017-Mar-26 03:31N 46°10' W 123°03'212734.1
2017-Mar-26 03:31N 45°52' W 122°48'19209.6
2017-Mar-26 03:25N 45°33' W 122°42'4044.5
2017-Mar-26 02:31N 46°10' W 123°03'4048052.8
2017-Mar-26 02:31N 45°33' W 122°42'492824.3
2017-Mar-26 02:30N 46°12' W 123°23'141861.0
2017-Mar-26 02:30N 46°10' W 123°03'21637.8
2017-Mar-26 02:28N 45°52' W 122°48'2123.3
2017-Mar-26 01:33N 46°10' W 123°03'0 0.2
2017-Mar-26 01:31N 46°10' W 123°03'40144158.5
2017-Mar-26 01:31N 45°33' W 122°42'19336.2
2017-Mar-26 01:28N 45°52' W 122°48'32531.2
2017-Mar-26 01:24N 46°12' W 123°23'1416.3
2017-Mar-26 00:33N 46°10' W 123°03'0 0.2
2017-Mar-26 00:31N 46°10' W 123°03'14749.9
2017-Mar-26 00:30N 46°12' W 123°23'49367.9
2017-Mar-26 00:22N 45°33' W 122°42'19122.8
2017-Mar-26 00:13N 45°52' W 122°48'2130.7
2017-Mar-25 23:31N 46°10' W 123°03'14785.0
2017-Mar-25 23:30N 46°12' W 123°23'141932.6
2017-Mar-25 23:30N 46°10' W 123°03'21632.5
2017-Mar-25 23:28N 45°52' W 122°48'19135.9
2017-Mar-25 23:19N 45°33' W 122°42'4963.4
2017-Mar-25 22:33N 46°12' W 123°23'142392.7
2017-Mar-25 22:33N 46°10' W 123°03'212186.8
2017-Mar-25 22:32N 45°52' W 122°48'211319.9
2017-Mar-25 22:31N 46°10' W 123°03'4036034.6
2017-Mar-25 22:31N 45°33' W 122°42'4950.3
2017-Mar-25 21:33N 46°12' W 123°23'141932.6
2017-Mar-25 21:33N 46°10' W 123°03'0 0.2
2017-Mar-25 21:31N 46°10' W 123°03'21622.4
2017-Mar-25 21:29N 45°52' W 122°48'191200.0
2017-Mar-25 21:28N 45°33' W 122°42'4953.0
2017-Mar-25 20:33N 46°12' W 123°23'142392.7
2017-Mar-25 20:33N 46°10' W 123°03'212126.0
2017-Mar-25 20:32N 45°52' W 122°48'21323.0
2017-Mar-25 20:28N 46°10' W 123°03'40198.3
2017-Mar-25 20:16N 45°33' W 122°42'1926.3
2017-Mar-25 19:32N 45°52' W 122°48'321029.1
2017-Mar-25 19:30N 46°12' W 123°23'142184.6
2017-Mar-25 19:30N 46°10' W 123°03'0 0.2
2017-Mar-25 19:28N 46°10' W 123°03'0 0.0
2017-Mar-25 18:31N 46°10' W 123°03'14728.2
2017-Mar-25 18:30N 46°12' W 123°23'321646.6
2017-Mar-25 18:29N 45°52' W 122°48'21114.4
2017-Mar-25 18:18N 46°10' W 123°03'0 0.0
2017-Mar-25 17:33N 46°10' W 123°03'0 0.2
2017-Mar-25 17:31N 46°10' W 123°03'14749.9
2017-Mar-25 17:30N 46°12' W 123°23'321670.4
2017-Mar-25 17:29N 45°52' W 122°48'0 0.0
2017-Mar-25 16:32N 45°52' W 122°48'211822.8
2017-Mar-25 16:31N 46°10' W 123°03'0 0.2
2017-Mar-25 16:30N 46°10' W 123°03'14322.1
2017-Mar-25 16:27N 46°12' W 123°23'491336.6
2017-Mar-25 16:25N 45°33' W 122°42'4046.0
2017-Mar-25 15:33N 46°10' W 123°03'0 0.2
2017-Mar-25 15:31N 46°10' W 123°03'14717.8
2017-Mar-25 15:30N 46°12' W 123°23'321646.6
2017-Mar-25 15:29N 45°52' W 122°48'191179.7
2017-Mar-25 15:28N 45°33' W 122°42'4043.5
2017-Mar-25 14:33N 46°10' W 123°03'211444.1
2017-Mar-25 14:32N 45°52' W 122°48'321097.7
2017-Mar-25 14:30N 46°12' W 123°23'14448.6
2017-Mar-25 14:28N 46°10' W 123°03'40717.2
2017-Mar-25 14:25N 45°33' W 122°42'4956.3
2017-Mar-25 13:33N 46°12' W 123°23'321695.0
2017-Mar-25 13:32N 45°52' W 122°48'211867.2
2017-Mar-25 13:31N 46°10' W 123°03'0 0.2
2017-Mar-25 13:30N 46°10' W 123°03'40173.9
2017-Mar-25 13:16N 45°33' W 122°42'4055.7
2017-Mar-25 12:33N 46°10' W 123°03'0 0.2
2017-Mar-25 12:31N 46°10' W 123°03'14707.7
2017-Mar-25 12:30N 46°12' W 123°23'321578.7
2017-Mar-25 12:29N 45°52' W 122°48'191122.9
2017-Mar-25 12:28N 45°33' W 122°42'4043.6
2017-Mar-25 11:33N 46°10' W 123°03'211530.7
2017-Mar-25 11:32N 45°52' W 122°48'321047.8
2017-Mar-25 11:30N 46°12' W 123°23'14174.5
2017-Mar-25 11:25N 46°10' W 123°03'40380.4
2017-Mar-25 11:19N 45°33' W 122°42'4963.6
2017-Mar-25 10:33N 46°12' W 123°23'321746.4
2017-Mar-25 10:32N 45°52' W 122°48'191054.2
2017-Mar-25 10:31N 45°33' W 122°42'402001.6
2017-Mar-25 10:30N 46°10' W 123°03'0 0.3
2017-Mar-25 10:28N 46°10' W 123°03'1415.2
2017-Mar-25 09:33N 46°12' W 123°23'142392.7
2017-Mar-25 09:33N 46°10' W 123°03'211530.4
2017-Mar-25 09:32N 45°52' W 122°48'191200.4
2017-Mar-25 09:31N 45°33' W 122°42'40912.4
2017-Mar-25 09:28N 46°10' W 123°03'1415.2
2017-Mar-25 08:33N 46°12' W 123°23'142283.9
2017-Mar-25 08:33N 46°10' W 123°03'0 0.1
2017-Mar-25 08:28N 46°10' W 123°03'21531.6
2017-Mar-25 08:26N 45°52' W 122°48'19291.2
2017-Mar-25 08:22N 45°33' W 122°42'4959.8
2017-Mar-25 07:33N 46°12' W 123°23'142283.9
2017-Mar-25 07:33N 46°10' W 123°03'211471.9
2017-Mar-25 07:32N 45°52' W 122°48'212392.4
2017-Mar-25 07:31N 46°10' W 123°03'40112.2
2017-Mar-25 07:10N 45°33' W 122°42'4064.6
2017-Mar-25 06:33N 46°10' W 123°03'211530.7
2017-Mar-25 06:32N 45°52' W 122°48'212392.4
2017-Mar-25 06:31N 46°10' W 123°03'14669.9
2017-Mar-25 06:30N 46°12' W 123°23'49261.7
2017-Mar-25 06:19N 45°33' W 122°42'4051.9
2017-Mar-25 05:33N 46°10' W 123°03'401322.4
2017-Mar-25 05:31N 45°33' W 122°42'493725.7
2017-Mar-25 05:30N 46°12' W 123°23'14465.2
2017-Mar-25 05:28N 46°10' W 123°03'21524.4
2017-Mar-25 05:26N 45°52' W 122°48'3236.4
2017-Mar-25 04:33N 46°12' W 123°23'321623.2
2017-Mar-25 04:32N 45°52' W 122°48'19286.5
2017-Mar-25 04:28N 45°33' W 122°42'402030.1
2017-Mar-25 04:27N 46°10' W 123°03'0 0.3
2017-Mar-25 04:25N 46°10' W 123°03'1416.0
2017-Mar-25 03:33N 46°12' W 123°23'321646.6
2017-Mar-25 03:32N 45°52' W 122°48'191159.7
2017-Mar-25 03:31N 45°33' W 122°42'402001.6
2017-Mar-25 03:30N 46°10' W 123°03'0 0.1
2017-Mar-25 03:25N 46°10' W 123°03'1416.0
2017-Mar-25 02:33N 46°12' W 123°23'142644.6
2017-Mar-25 02:33N 46°10' W 123°03'211562.0
2017-Mar-25 02:32N 45°52' W 122°48'212469.5
2017-Mar-25 02:32N 46°10' W 123°03'0 0.0
2017-Mar-25 01:33N 46°10' W 123°03'211663.9
2017-Mar-25 01:32N 45°52' W 122°48'21362.8
2017-Mar-25 01:29N 46°10' W 123°03'14114.4
2017-Mar-25 01:21N 46°12' W 123°23'49170.0
2017-Mar-25 01:04N 45°33' W 122°42'1936.6
2017-Mar-25 00:32N 45°52' W 122°48'21517.1
2017-Mar-25 00:30N 46°10' W 123°03'0 0.3
2017-Mar-25 00:28N 46°10' W 123°03'14661.1
2017-Mar-25 00:27N 46°12' W 123°23'0 0.0
2017-Mar-24 23:33N 46°12' W 123°23'142512.3
2017-Mar-24 23:33N 46°10' W 123°03'401322.4
2017-Mar-24 23:31N 45°33' W 122°42'19575.2
2017-Mar-24 23:29N 45°52' W 122°48'212469.5
2017-Mar-24 23:28N 46°10' W 123°03'1415.1
2017-Mar-24 22:33N 46°12' W 123°23'321670.4
2017-Mar-24 22:32N 45°52' W 122°48'19289.9
2017-Mar-24 22:28N 45°33' W 122°42'402029.8
2017-Mar-24 22:27N 46°10' W 123°03'0 0.0
2017-Mar-24 22:20N 46°10' W 123°03'0 0.0
2017-Mar-24 21:33N 46°10' W 123°03'211663.9
2017-Mar-24 21:32N 45°52' W 122°48'321047.8
2017-Mar-24 21:30N 46°12' W 123°23'491316.6
2017-Mar-24 21:28N 45°33' W 122°42'40948.4
2017-Mar-24 21:25N 46°10' W 123°03'2123.9
2017-Mar-24 20:32N 45°52' W 122°48'21584.3
2017-Mar-24 20:30N 46°10' W 123°03'0 0.3
2017-Mar-24 20:29N 46°10' W 123°03'14191.0
2017-Mar-24 20:24N 46°12' W 123°23'491336.7
2017-Mar-24 20:22N 45°33' W 122°42'4959.8
2017-Mar-24 19:33N 46°12' W 123°23'14507.5
2017-Mar-24 19:32N 46°10' W 123°03'0 0.2
2017-Mar-24 19:30N 46°10' W 123°03'211739.5
2017-Mar-24 19:29N 45°52' W 122°48'19287.6
2017-Mar-24 19:25N 45°33' W 122°42'0 0.0
2017-Mar-24 18:31N 45°33' W 122°42'493573.3
2017-Mar-24 18:30N 46°12' W 123°23'142283.9
2017-Mar-24 18:30N 46°10' W 123°03'211594.1
2017-Mar-24 18:29N 45°52' W 122°48'212733.5
2017-Mar-24 18:29N 46°10' W 123°03'1415.1
2017-Mar-24 17:33N 46°12' W 123°23'14252.5
2017-Mar-24 17:30N 46°10' W 123°03'211562.0
2017-Mar-24 17:29N 45°52' W 122°48'212734.1
2017-Mar-24 17:29N 46°10' W 123°03'404504.3
2017-Mar-24 17:28N 45°33' W 122°42'4953.2
2017-Mar-24 16:33N 46°12' W 123°23'142392.7
2017-Mar-24 16:33N 46°10' W 123°03'211628.5
2017-Mar-24 16:32N 45°52' W 122°48'212734.1
2017-Mar-24 16:32N 46°10' W 123°03'40250.7
2017-Mar-24 16:22N 45°33' W 122°42'4048.9
2017-Mar-24 15:33N 46°10' W 123°03'211594.5
2017-Mar-24 15:32N 45°52' W 122°48'19291.1
2017-Mar-24 15:28N 45°33' W 122°42'493573.3
2017-Mar-24 15:27N 46°12' W 123°23'14182.0
2017-Mar-24 15:23N 46°10' W 123°03'0 0.0
2017-Mar-24 14:32N 46°10' W 123°03'21503.7
2017-Mar-24 14:29N 45°52' W 122°48'21579.8
2017-Mar-24 14:27N 46°10' W 123°03'14148.7
2017-Mar-24 14:21N 46°12' W 123°23'49563.1
2017-Mar-24 14:16N 45°33' W 122°42'4055.6
2017-Mar-24 13:33N 46°10' W 123°03'211663.9
2017-Mar-24 13:32N 45°52' W 122°48'212639.9
2017-Mar-24 13:32N 46°10' W 123°03'14605.3
2017-Mar-24 13:30N 46°12' W 123°23'49144.8
2017-Mar-24 13:10N 45°33' W 122°42'4064.5
2017-Mar-24 12:33N 46°10' W 123°03'211594.1
2017-Mar-24 12:32N 45°52' W 122°48'212943.7
2017-Mar-24 12:32N 46°10' W 123°03'14591.1
2017-Mar-24 12:30N 46°12' W 123°23'0 0.0
2017-Mar-24 11:33N 46°12' W 123°23'142009.9
2017-Mar-24 11:33N 46°10' W 123°03'21335.7
2017-Mar-24 11:29N 45°52' W 122°48'213328.5
2017-Mar-24 11:29N 46°10' W 123°03'403793.1
2017-Mar-24 11:28N 45°33' W 122°42'4043.6
2017-Mar-24 10:33N 46°10' W 123°03'211562.0
2017-Mar-24 10:32N 45°52' W 122°48'213479.8
2017-Mar-24 10:32N 46°10' W 123°03'14188.9
2017-Mar-24 10:27N 46°12' W 123°23'0 0.0
2017-Mar-24 09:33N 46°12' W 123°23'321695.0
2017-Mar-24 09:32N 45°52' W 122°48'213062.2
2017-Mar-24 09:32N 46°10' W 123°03'403896.2
2017-Mar-24 09:31N 45°33' W 122°42'40334.4
2017-Mar-24 09:24N 46°10' W 123°03'1416.5
2017-Mar-24 08:33N 46°12' W 123°23'321695.0
2017-Mar-24 08:32N 45°52' W 122°48'212944.5
2017-Mar-24 08:32N 46°10' W 123°03'404003.8
2017-Mar-24 08:31N 45°33' W 122°42'40569.6
2017-Mar-24 08:27N 46°10' W 123°03'0 0.0
2017-Mar-24 07:33N 46°10' W 123°03'14324.2
2017-Mar-24 07:30N 46°12' W 123°23'321578.9
2017-Mar-24 07:29N 45°52' W 122°48'213827.8
2017-Mar-24 07:29N 46°10' W 123°03'403603.5
2017-Mar-24 07:28N 45°33' W 122°42'4953.2
2017-Mar-24 06:33N 46°12' W 123°23'321695.0
2017-Mar-24 06:32N 45°52' W 122°48'212944.5
2017-Mar-24 06:32N 46°10' W 123°03'403604.0
2017-Mar-24 06:31N 45°33' W 122°42'402059.1
2017-Mar-24 06:30N 46°10' W 123°03'1414.8
2017-Mar-24 05:33N 46°12' W 123°23'142184.6
2017-Mar-24 05:33N 46°10' W 123°03'211594.5
2017-Mar-24 05:32N 45°52' W 122°48'21382.8
2017-Mar-24 05:29N 46°10' W 123°03'40362.2
2017-Mar-24 05:22N 45°33' W 122°42'4048.8
2017-Mar-24 04:33N 46°10' W 123°03'211663.4
2017-Mar-24 04:32N 45°52' W 122°48'213189.0
2017-Mar-24 04:32N 46°10' W 123°03'40249.4
2017-Mar-24 04:22N 45°33' W 122°42'493367.5
2017-Mar-24 04:21N 46°12' W 123°23'4954.9
2017-Mar-24 03:28N 45°33' W 122°42'402089.0
2017-Mar-24 03:27N 46°10' W 123°03'211628.5
2017-Mar-24 03:26N 45°52' W 122°48'21380.9
2017-Mar-24 03:23N 46°10' W 123°03'14186.1
2017-Mar-24 03:18N 46°12' W 123°23'1418.5
2017-Mar-24 02:33N 46°10' W 123°03'211628.5
2017-Mar-24 02:32N 45°52' W 122°48'2169.5
2017-Mar-24 02:14N 46°10' W 123°03'14112.1
2017-Mar-24 02:06N 46°12' W 123°23'491326.4
2017-Mar-24 02:04N 45°33' W 122°42'4074.3
2017-Mar-24 01:32N 46°10' W 123°03'14570.9
2017-Mar-24 01:30N 46°12' W 123°23'142184.6
2017-Mar-24 01:30N 46°10' W 123°03'21329.9
2017-Mar-24 01:26N 45°52' W 122°48'2124.0
2017-Mar-24 00:33N 46°10' W 123°03'211594.5
2017-Mar-24 00:32N 45°52' W 122°48'214253.1
2017-Mar-24 00:32N 46°10' W 123°03'1432.9
2017-Mar-24 00:06N 46°12' W 123°23'1425.1
2017-Mar-23 23:33N 46°10' W 123°03'211594.5
2017-Mar-23 23:32N 45°52' W 122°48'214784.7
2017-Mar-23 23:32N 46°10' W 123°03'14111.2
2017-Mar-23 23:24N 46°12' W 123°23'49206.0
2017-Mar-23 23:10N 45°33' W 122°42'4064.5
2017-Mar-23 22:33N 46°10' W 123°03'21338.6
2017-Mar-23 22:29N 45°52' W 122°48'213479.0
2017-Mar-23 22:29N 46°10' W 123°03'14188.2
2017-Mar-23 22:24N 46°12' W 123°23'1416.3
2017-Mar-23 21:33N 46°10' W 123°03'211594.5
2017-Mar-23 21:32N 45°52' W 122°48'214253.1
2017-Mar-23 21:32N 46°10' W 123°03'14185.4
2017-Mar-23 21:27N 46°12' W 123°23'49261.4
2017-Mar-23 21:16N 45°33' W 122°42'4055.6
2017-Mar-23 20:33N 46°10' W 123°03'211500.7
2017-Mar-23 20:32N 45°52' W 122°48'215888.9
2017-Mar-23 20:32N 46°10' W 123°03'14546.1
2017-Mar-23 20:30N 46°12' W 123°23'3233.0
2017-Mar-23 19:32N 45°52' W 122°48'214498.8
2017-Mar-23 19:32N 46°10' W 123°03'0 1.3
2017-Mar-23 19:30N 46°10' W 123°03'40308.6
2017-Mar-23 19:22N 45°33' W 122°42'49297.8
2017-Mar-23 19:12N 46°12' W 123°23'3247.8
2017-Mar-23 18:32N 45°52' W 122°48'215103.7
2017-Mar-23 18:32N 46°10' W 123°03'14534.5
2017-Mar-23 18:30N 46°12' W 123°23'142009.9
2017-Mar-23 18:30N 46°10' W 123°03'401359.6
2017-Mar-23 18:28N 45°33' W 122°42'4953.3
2017-Mar-23 17:33N 46°12' W 123°23'142009.9
2017-Mar-23 17:33N 46°10' W 123°03'211562.0
2017-Mar-23 17:32N 45°52' W 122°48'215888.9
2017-Mar-23 17:32N 46°10' W 123°03'40110.3
2017-Mar-23 17:10N 45°33' W 122°42'4064.7
2017-Mar-23 16:33N 46°10' W 123°03'0 0.3
2017-Mar-23 16:32N 46°10' W 123°03'21466.8
2017-Mar-23 16:29N 45°52' W 122°48'19165.3
2017-Mar-23 16:22N 45°33' W 122°42'493648.1
2017-Mar-23 16:21N 46°12' W 123°23'3239.1
2017-Mar-23 15:32N 45°52' W 122°48'21584.3
2017-Mar-23 15:30N 46°10' W 123°03'0 0.3
2017-Mar-23 15:29N 46°10' W 123°03'403203.5
2017-Mar-23 15:28N 45°33' W 122°42'49428.2
2017-Mar-23 15:21N 46°12' W 123°23'1417.3
2017-Mar-23 14:33N 46°10' W 123°03'0 0.1
2017-Mar-23 14:29N 46°10' W 123°03'402883.2
2017-Mar-23 14:28N 45°33' W 122°42'19600.0
2017-Mar-23 14:26N 45°52' W 122°48'3235.9
2017-Mar-23 13:32N 46°12' W 123°23'323974.5
2017-Mar-23 13:32N 45°52' W 122°48'21597.9
2017-Mar-23 13:30N 46°10' W 123°03'0 0.4
2017-Mar-23 13:29N 46°10' W 123°03'402882.8
2017-Mar-23 13:28N 45°33' W 122°42'4043.5
2017-Mar-23 12:33N 46°10' W 123°03'211663.4
2017-Mar-23 12:32N 45°52' W 122°48'21394.5
2017-Mar-23 12:29N 46°10' W 123°03'145582.6
2017-Mar-23 12:29N 46°12' W 123°23'494270.9
2017-Mar-23 12:28N 45°33' W 122°42'4043.5
2017-Mar-23 11:33N 46°10' W 123°03'0 0.1
2017-Mar-23 11:29N 46°10' W 123°03'402826.2
2017-Mar-23 11:28N 45°33' W 122°42'19146.5
2017-Mar-23 11:20N 45°52' W 122°48'32125.1
2017-Mar-23 11:05N 46°12' W 123°23'1426.2
2017-Mar-23 10:33N 46°10' W 123°03'211628.5
2017-Mar-23 10:32N 45°52' W 122°48'32570.6
2017-Mar-23 10:29N 46°12' W 123°23'494732.2
2017-Mar-23 10:28N 45°33' W 122°42'40294.2
2017-Mar-23 10:20N 46°10' W 123°03'0 0.0
2017-Mar-23 09:33N 46°10' W 123°03'211663.9
2017-Mar-23 09:32N 45°52' W 122°48'216379.7
2017-Mar-23 09:32N 46°10' W 123°03'145582.6
2017-Mar-23 09:32N 46°12' W 123°23'49186.9
2017-Mar-23 09:16N 45°33' W 122°42'4055.5
2017-Mar-23 08:33N 46°10' W 123°03'211700.8
2017-Mar-23 08:32N 45°52' W 122°48'211822.8
2017-Mar-23 08:31N 46°10' W 123°03'40710.1
2017-Mar-23 08:28N 45°33' W 122°42'49168.5
2017-Mar-23 08:11N 46°12' W 123°23'1422.1
2017-Mar-23 07:33N 46°10' W 123°03'211562.0
2017-Mar-23 07:32N 45°52' W 122°48'212014.6
2017-Mar-23 07:31N 46°10' W 123°03'1496.3
2017-Mar-23 07:23N 46°12' W 123°23'494377.7
2017-Mar-23 07:22N 45°33' W 122°42'1923.2
2017-Mar-23 06:32N 45°52' W 122°48'21593.3
2017-Mar-23 06:30N 46°10' W 123°03'14728.2
2017-Mar-23 06:29N 46°12' W 123°23'494270.5
2017-Mar-23 06:28N 45°33' W 122°42'40900.9
2017-Mar-23 06:25N 46°10' W 123°03'1415.6
2017-Mar-23 05:32N 46°12' W 123°23'142392.5
2017-Mar-23 05:31N 46°10' W 123°03'407207.9
2017-Mar-23 05:31N 45°33' W 122°42'19584.9
2017-Mar-23 05:29N 45°52' W 122°48'21155.6
2017-Mar-23 05:21N 46°10' W 123°03'2126.2
2017-Mar-23 04:32N 45°52' W 122°48'21562.8
2017-Mar-23 04:30N 46°10' W 123°03'401359.6
2017-Mar-23 04:28N 45°33' W 122°42'40912.3
2017-Mar-23 04:25N 46°10' W 123°03'2123.9
2017-Mar-23 03:32N 45°52' W 122°48'21566.9
2017-Mar-23 03:30N 46°10' W 123°03'0 0.2
2017-Mar-23 03:28N 46°10' W 123°03'40378.4
2017-Mar-23 03:22N 45°33' W 122°42'4048.8
2017-Mar-23 02:33N 46°10' W 123°03'211594.5
2017-Mar-23 02:32N 45°52' W 122°48'212014.6
2017-Mar-23 02:31N 46°10' W 123°03'4087.8
2017-Mar-23 02:04N 45°33' W 122°42'4077.0
2017-Mar-23 01:33N 46°10' W 123°03'0 0.3
2017-Mar-23 01:31N 46°10' W 123°03'21539.1
2017-Mar-23 01:29N 45°52' W 122°48'191141.0
2017-Mar-23 01:28N 45°33' W 122°42'4043.5
2017-Mar-23 00:33N 46°10' W 123°03'0 0.3
2017-Mar-23 00:31N 46°10' W 123°03'21550.8
2017-Mar-23 00:29N 45°52' W 122°48'191087.5
2017-Mar-23 00:28N 45°33' W 122°42'49545.5
2017-Mar-23 00:23N 46°12' W 123°23'1416.3
2017-Mar-22 23:31N 46°10' W 123°03'21535.4
2017-Mar-22 23:29N 45°52' W 122°48'19165.3
2017-Mar-22 23:22N 45°33' W 122°42'40567.5
2017-Mar-22 23:18N 46°10' W 123°03'0 0.0
2017-Mar-22 22:33N 46°10' W 123°03'21335.7
2017-Mar-22 22:29N 45°52' W 122°48'325763.0
2017-Mar-22 22:29N 46°12' W 123°23'14259.0
2017-Mar-22 22:25N 46°10' W 123°03'40699.8
2017-Mar-22 22:22N 45°33' W 122°42'4957.9
2017-Mar-22 21:32N 46°12' W 123°23'144186.9
2017-Mar-22 21:31N 46°10' W 123°03'0 0.2
2017-Mar-22 21:30N 46°10' W 123°03'401347.1
2017-Mar-22 21:28N 45°33' W 122°42'19589.8
2017-Mar-22 21:26N 45°52' W 122°48'0 0.0
2017-Mar-22 20:32N 45°52' W 122°48'212187.3
2017-Mar-22 20:31N 46°10' W 123°03'0 0.1
2017-Mar-22 20:27N 46°10' W 123°03'40500.5
2017-Mar-22 20:22N 45°33' W 122°42'49543.8
2017-Mar-22 20:17N 46°12' W 123°23'3243.0
2017-Mar-22 19:32N 45°52' W 122°48'212639.9
2017-Mar-22 19:32N 46°10' W 123°03'0 0.2
2017-Mar-22 19:30N 46°10' W 123°03'401310.2
2017-Mar-22 19:28N 45°33' W 122°42'49548.9
2017-Mar-22 19:23N 46°12' W 123°23'3237.9
2017-Mar-22 18:32N 45°52' W 122°48'325238.4
2017-Mar-22 18:32N 46°12' W 123°23'142283.9
2017-Mar-22 18:31N 46°10' W 123°03'0 0.1
2017-Mar-22 18:28N 46°10' W 123°03'40370.6
2017-Mar-22 18:22N 45°33' W 122°42'1923.2
2017-Mar-22 17:32N 45°52' W 122°48'325238.4
2017-Mar-22 17:32N 46°12' W 123°23'143588.8
2017-Mar-22 17:31N 46°10' W 123°03'0 3.1
2017-Mar-22 17:31N 46°10' W 123°03'40156.8
2017-Mar-22 17:16N 45°33' W 122°42'4053.9
2017-Mar-22 16:31N 46°10' W 123°03'21513.8
2017-Mar-22 16:29N 45°52' W 122°48'32576.3
2017-Mar-22 16:26N 46°12' W 123°23'14252.5
2017-Mar-22 16:22N 46°10' W 123°03'406863.7
2017-Mar-22 16:22N 45°33' W 122°42'1923.2
2017-Mar-22 15:32N 45°52' W 122°48'212126.0
2017-Mar-22 15:31N 46°10' W 123°03'0 0.1
2017-Mar-22 15:28N 46°10' W 123°03'14144.8
2017-Mar-22 15:23N 46°12' W 123°23'494377.7
2017-Mar-22 15:22N 45°33' W 122°42'4958.0
2017-Mar-22 14:32N 46°12' W 123°23'32738.9
2017-Mar-22 14:29N 45°52' W 122°48'212392.4
2017-Mar-22 14:29N 46°10' W 123°03'0 1.4
2017-Mar-22 14:28N 46°10' W 123°03'0 0.0
2017-Mar-22 13:31N 46°10' W 123°03'21558.5
2017-Mar-22 13:29N 45°52' W 122°48'191122.9
2017-Mar-22 13:28N 45°33' W 122°42'49545.5
2017-Mar-22 13:23N 46°12' W 123°23'14263.1
2017-Mar-22 13:19N 46°10' W 123°03'0 0.0
2017-Mar-22 12:32N 46°10' W 123°03'21513.8
2017-Mar-22 12:29N 45°52' W 122°48'21343.2
2017-Mar-22 12:25N 46°10' W 123°03'40731.7
2017-Mar-22 12:22N 45°33' W 122°42'49203.1
2017-Mar-22 12:08N 46°12' W 123°23'3254.0
2017-Mar-22 11:32N 45°52' W 122°48'211700.8
2017-Mar-22 11:31N 46°10' W 123°03'0 0.1
2017-Mar-22 11:29N 46°10' W 123°03'404649.6
2017-Mar-22 11:28N 45°33' W 122°42'491268.8
2017-Mar-22 11:26N 46°12' W 123°23'0 0.0
2017-Mar-22 10:32N 46°12' W 123°23'142392.7
2017-Mar-22 10:31N 46°10' W 123°03'0 0.1
2017-Mar-22 10:29N 46°10' W 123°03'21503.7
2017-Mar-22 10:26N 45°52' W 122°48'3235.4
2017-Mar-22 09:32N 46°12' W 123°23'142644.6
2017-Mar-22 09:31N 46°10' W 123°03'21542.8
2017-Mar-22 09:29N 45°52' W 122°48'21195.8
2017-Mar-22 09:23N 46°10' W 123°03'2123.8
2017-Mar-22 08:29N 45°52' W 122°48'211822.3
2017-Mar-22 08:28N 46°10' W 123°03'14316.0
2017-Mar-22 08:26N 46°12' W 123°23'14268.7
2017-Mar-22 08:23N 46°10' W 123°03'0 0.0
2017-Mar-22 07:31N 46°10' W 123°03'0 0.9
2017-Mar-22 07:29N 46°10' W 123°03'21499.9
2017-Mar-22 07:26N 45°52' W 122°48'3235.4
2017-Mar-22 06:32N 46°12' W 123°23'147177.6
2017-Mar-22 06:32N 46°10' W 123°03'21497.1
2017-Mar-22 06:29N 45°52' W 122°48'21346.3
2017-Mar-22 06:25N 46°10' W 123°03'40112.8
2017-Mar-22 06:04N 45°33' W 122°42'1933.1
2017-Mar-22 05:29N 45°52' W 122°48'211822.3
2017-Mar-22 05:28N 46°10' W 123°03'0 0.0
2017-Mar-22 05:20N 46°10' W 123°03'2126.8
2017-Mar-22 04:32N 45°52' W 122°48'211866.8
2017-Mar-22 04:31N 46°10' W 123°03'14322.1
2017-Mar-22 04:29N 46°12' W 123°23'1410048.6
2017-Mar-22 04:29N 46°10' W 123°03'40190.9
2017-Mar-22 04:16N 45°33' W 122°42'4054.1
2017-Mar-22 03:32N 46°10' W 123°03'0 1.3
2017-Mar-22 03:31N 46°10' W 123°03'21558.5
2017-Mar-22 03:29N 45°52' W 122°48'32302.5
2017-Mar-22 03:23N 46°12' W 123°23'3237.9
2017-Mar-22 02:32N 45°52' W 122°48'213062.2
2017-Mar-22 02:32N 46°10' W 123°03'14288.8
2017-Mar-22 02:29N 46°12' W 123°23'14132.2
2017-Mar-22 02:22N 46°10' W 123°03'0 0.0
2017-Mar-22 01:32N 46°10' W 123°03'0 1.4
2017-Mar-22 01:31N 46°10' W 123°03'21550.6
2017-Mar-22 01:29N 45°52' W 122°48'32205.8
2017-Mar-22 01:20N 46°12' W 123°23'3240.3
2017-Mar-22 00:32N 45°52' W 122°48'213479.8
2017-Mar-22 00:32N 46°10' W 123°03'0 1.2
2017-Mar-22 00:31N 46°10' W 123°03'40724.3
2017-Mar-22 00:28N 45°33' W 122°42'49203.6
2017-Mar-22 00:14N 46°12' W 123°23'1419.9
2017-Mar-21 23:32N 46°10' W 123°03'0 1.1
2017-Mar-21 23:31N 46°10' W 123°03'21554.6
2017-Mar-21 23:29N 45°52' W 122°48'0 0.0
2017-Mar-21 22:29N 45°52' W 122°48'213189.8
2017-Mar-21 22:29N 46°10' W 123°03'0 0.1
2017-Mar-21 22:25N 46°10' W 123°03'407586.2
2017-Mar-21 22:25N 45°33' W 122°42'1921.9
2017-Mar-21 21:32N 45°52' W 122°48'211962.5
2017-Mar-21 21:31N 46°10' W 123°03'0 0.1
2017-Mar-21 21:29N 46°10' W 123°03'40358.6
2017-Mar-21 21:22N 45°33' W 122°42'1923.2
2017-Mar-21 20:32N 45°52' W 122°48'325763.0
2017-Mar-21 20:32N 46°12' W 123°23'142512.3
2017-Mar-21 20:31N 46°10' W 123°03'0 0.1
2017-Mar-21 20:26N 46°10' W 123°03'2123.8
2017-Mar-21 19:32N 45°52' W 122°48'213479.8
2017-Mar-21 19:32N 46°10' W 123°03'0 1.0
2017-Mar-21 19:31N 46°10' W 123°03'14316.0
2017-Mar-21 19:29N 46°12' W 123°23'49231.6
2017-Mar-21 19:16N 45°33' W 122°42'1924.7
2017-Mar-21 18:29N 45°52' W 122°48'214029.3
2017-Mar-21 18:29N 46°10' W 123°03'0 0.1
2017-Mar-21 18:25N 46°10' W 123°03'1447.4
2017-Mar-21 18:08N 46°12' W 123°23'49799.6
2017-Mar-21 18:04N 45°33' W 122°42'4073.5
2017-Mar-21 17:31N 46°10' W 123°03'21554.6
2017-Mar-21 17:29N 45°52' W 122°48'21384.7
2017-Mar-21 17:26N 46°10' W 123°03'1425121.6
2017-Mar-21 17:26N 46°12' W 123°23'3235.8
2017-Mar-21 16:32N 45°52' W 122°48'214253.1
2017-Mar-21 16:32N 46°10' W 123°03'0 1.0
2017-Mar-21 16:31N 46°10' W 123°03'2121.5
2017-Mar-21 15:32N 45°52' W 122°48'212014.1
2017-Mar-21 15:31N 46°10' W 123°03'0 0.1
2017-Mar-21 15:29N 46°10' W 123°03'14138.0
2017-Mar-21 15:23N 46°12' W 123°23'3238.0
2017-Mar-21 14:32N 45°52' W 122°48'21380.9
2017-Mar-21 14:29N 46°10' W 123°03'0 0.1
2017-Mar-21 14:25N 46°10' W 123°03'40256.9
2017-Mar-21 14:16N 45°33' W 122°42'49550.7
2017-Mar-21 14:11N 46°12' W 123°23'3249.7
2017-Mar-21 13:32N 45°52' W 122°48'213826.9
2017-Mar-21 13:32N 46°10' W 123°03'0 1.0
2017-Mar-21 13:31N 46°10' W 123°03'40112.6
2017-Mar-21 13:10N 45°33' W 122°42'4062.1
2017-Mar-21 12:31N 46°10' W 123°03'21562.8
2017-Mar-21 12:29N 45°52' W 122°48'213827.8
2017-Mar-21 12:29N 46°10' W 123°03'40188.4
2017-Mar-21 12:16N 45°33' W 122°42'1926.4
2017-Mar-21 11:32N 45°52' W 122°48'211913.4
2017-Mar-21 11:31N 46°10' W 123°03'0 0.0
2017-Mar-21 11:23N 46°10' W 123°03'14137.3
2017-Mar-21 11:17N 46°12' W 123°23'1418.7
2017-Mar-21 10:32N 46°10' W 123°03'1410048.6
2017-Mar-21 10:32N 46°12' W 123°23'142392.7
2017-Mar-21 10:31N 46°10' W 123°03'21554.6
2017-Mar-21 10:29N 45°52' W 122°48'0 0.0
2017-Mar-21 09:32N 45°52' W 122°48'215888.9
2017-Mar-21 09:32N 46°10' W 123°03'0 0.8
2017-Mar-21 09:31N 46°10' W 123°03'2121.4
2017-Mar-21 08:32N 45°52' W 122°48'213061.5
2017-Mar-21 08:31N 46°10' W 123°03'0 0.2
2017-Mar-21 08:29N 46°10' W 123°03'14238.1
2017-Mar-21 08:26N 46°12' W 123°23'1415.7
2017-Mar-21 07:32N 46°10' W 123°03'0 0.4
2017-Mar-21 07:31N 46°10' W 123°03'21150.7
2017-Mar-21 07:23N 45°52' W 122°48'3214407.5
2017-Mar-21 07:23N 46°12' W 123°23'1416.5
2017-Mar-21 06:32N 46°10' W 123°03'2176555.8
2017-Mar-21 06:32N 45°52' W 122°48'21362.7
2017-Mar-21 06:28N 46°10' W 123°03'1457.2
2017-Mar-21 06:14N 46°12' W 123°23'3245.9
2017-Mar-21 05:32N 45°52' W 122°48'21362.7
2017-Mar-21 05:28N 46°10' W 123°03'0 0.1
2017-Mar-21 05:26N 46°10' W 123°03'1439.6
2017-Mar-21 05:05N 46°12' W 123°23'1425.1
2017-Mar-21 04:31N 46°10' W 123°03'0 0.1
2017-Mar-21 04:29N 46°10' W 123°03'1416747.7
2017-Mar-21 04:29N 46°12' W 123°23'3233.7
2017-Mar-21 03:32N 45°52' W 122°48'212943.7
2017-Mar-21 03:31N 46°10' W 123°03'0 0.1
2017-Mar-21 03:29N 46°10' W 123°03'1491.7
2017-Mar-21 03:20N 46°12' W 123°23'1417.5
2017-Mar-21 02:32N 46°10' W 123°03'2110936.5
2017-Mar-21 02:32N 45°52' W 122°48'211962.5
2017-Mar-21 02:31N 46°10' W 123°03'0 0.0
2017-Mar-21 01:32N 46°10' W 123°03'2138268.6
2017-Mar-21 01:32N 45°52' W 122°48'211663.4
2017-Mar-21 01:31N 46°10' W 123°03'1458.3
2017-Mar-21 01:17N 46°12' W 123°23'49788.7
2017-Mar-21 01:13N 45°33' W 122°42'4058.5
2017-Mar-21 00:32N 46°10' W 123°03'0 0.4
2017-Mar-21 00:31N 46°10' W 123°03'21575.5
2017-Mar-21 00:29N 45°52' W 122°48'0 0.0
2017-Mar-20 23:32N 45°52' W 122°48'211297.2
2017-Mar-20 23:31N 46°10' W 123°03'0 0.2
2017-Mar-20 23:29N 46°10' W 123°03'40109.7
2017-Mar-20 23:07N 45°33' W 122°42'4068.5
2017-Mar-20 22:32N 46°10' W 123°03'2115311.2
2017-Mar-20 22:32N 45°52' W 122°48'191450.0
2017-Mar-20 22:31N 45°33' W 122°42'4016015.4
2017-Mar-20 22:31N 46°10' W 123°03'0 0.0
2017-Mar-20 21:32N 46°10' W 123°03'0 0.3
2017-Mar-20 21:31N 46°10' W 123°03'21622.3
2017-Mar-20 21:29N 45°52' W 122°48'1961.9
2017-Mar-20 21:10N 45°33' W 122°42'0 0.0
2017-Mar-20 20:31N 45°33' W 122°42'19504.2
2017-Mar-20 20:29N 45°52' W 122°48'211366.7
2017-Mar-20 20:28N 46°10' W 123°03'0 0.2
2017-Mar-20 20:26N 46°10' W 123°03'0 0.0
2017-Mar-20 19:32N 46°10' W 123°03'402621.1
2017-Mar-20 19:31N 45°33' W 122°42'4016015.4
2017-Mar-20 19:31N 46°10' W 123°03'21159.8
2017-Mar-20 19:23N 45°52' W 122°48'0 0.0
2017-Mar-20 18:32N 45°52' W 122°48'211319.6
2017-Mar-20 18:31N 46°10' W 123°03'0 0.3
2017-Mar-20 18:29N 46°10' W 123°03'40124.1
2017-Mar-20 18:10N 45°33' W 122°42'4064.0
2017-Mar-20 17:32N 46°10' W 123°03'211963.0
2017-Mar-20 17:32N 45°52' W 122°48'211319.6
2017-Mar-20 17:31N 46°10' W 123°03'40162.1
2017-Mar-20 17:16N 45°33' W 122°42'4055.1
2017-Mar-20 16:32N 46°10' W 123°03'212126.6
2017-Mar-20 16:32N 45°52' W 122°48'211275.6
2017-Mar-20 16:31N 46°10' W 123°03'1432.0
2017-Mar-20 16:05N 46°12' W 123°23'1423.4
2017-Mar-20 15:29N 46°10' W 123°03'217655.6
2017-Mar-20 15:29N 45°52' W 122°48'3223051.9
2017-Mar-20 15:29N 46°12' W 123°23'14215.7
2017-Mar-20 15:25N 46°10' W 123°03'0 0.0
2017-Mar-20 14:32N 46°10' W 123°03'216379.7
2017-Mar-20 14:32N 45°52' W 122°48'21184.9
2017-Mar-20 14:25N 46°10' W 123°03'2124.0
2017-Mar-20 13:32N 45°52' W 122°48'191450.0
2017-Mar-20 13:31N 45°33' W 122°42'4011087.6
2017-Mar-20 13:31N 46°10' W 123°03'0 0.2
2017-Mar-20 13:29N 46°10' W 123°03'0 0.0
2017-Mar-20 12:32N 46°10' W 123°03'216378.1
2017-Mar-20 12:32N 45°52' W 122°48'21183.9
2017-Mar-20 12:25N 46°10' W 123°03'40858.0
2017-Mar-20 12:22N 45°33' W 122°42'4047.0
2017-Mar-20 11:31N 46°10' W 123°03'0 0.1
2017-Mar-20 11:26N 46°10' W 123°03'216379.7
2017-Mar-20 11:26N 45°52' W 122°48'19119.1
2017-Mar-20 11:16N 45°33' W 122°42'1926.2
2017-Mar-20 10:32N 45°52' W 122°48'21458.4
2017-Mar-20 10:29N 46°10' W 123°03'0 0.1
2017-Mar-20 10:22N 46°10' W 123°03'40202.7
2017-Mar-20 10:10N 45°33' W 122°42'1930.3
2017-Mar-20 09:32N 45°52' W 122°48'211417.4
2017-Mar-20 09:31N 46°10' W 123°03'0 0.2
2017-Mar-20 09:29N 46°10' W 123°03'40344.9
2017-Mar-20 09:22N 45°33' W 122°42'4048.0
2017-Mar-20 08:32N 46°10' W 123°03'21398.7
2017-Mar-20 08:29N 45°52' W 122°48'3219210.0
2017-Mar-20 08:29N 46°12' W 123°23'14219.4
2017-Mar-20 08:25N 46°10' W 123°03'40271.4
2017-Mar-20 08:16N 45°33' W 122°42'4053.2
2017-Mar-20 07:31N 46°10' W 123°03'0 0.2
2017-Mar-20 07:29N 46°10' W 123°03'215103.7
2017-Mar-20 07:29N 45°52' W 122°48'1961.9
2017-Mar-20 07:10N 45°33' W 122°42'491233.2
2017-Mar-20 07:08N 46°12' W 123°23'3253.5
2017-Mar-20 06:32N 45°52' W 122°48'21466.8
2017-Mar-20 06:29N 46°10' W 123°03'0 0.3
2017-Mar-20 06:28N 46°10' W 123°03'1459.3
2017-Mar-20 06:14N 46°12' W 123°23'49301.4
2017-Mar-20 06:04N 45°33' W 122°42'4991.9
2017-Mar-20 05:32N 46°12' W 123°23'32546.3
2017-Mar-20 05:29N 45°52' W 122°48'21461.2
2017-Mar-20 05:26N 46°10' W 123°03'401550.1
2017-Mar-20 05:24N 45°33' W 122°42'4011087.6
2017-Mar-20 05:24N 46°10' W 123°03'0 0.0
2017-Mar-20 04:32N 46°10' W 123°03'142512.2
2017-Mar-20 04:32N 46°12' W 123°23'49803.2
2017-Mar-20 04:28N 45°33' W 122°42'19222.3
2017-Mar-20 04:23N 45°52' W 122°48'21128.2
2017-Mar-20 04:13N 46°10' W 123°03'0 0.0
2017-Mar-20 03:31N 46°10' W 123°03'21648.6
2017-Mar-20 03:29N 45°52' W 122°48'21455.7
2017-Mar-20 03:26N 46°10' W 123°03'40595.7
2017-Mar-20 03:22N 45°33' W 122°42'49550.7
2017-Mar-20 03:17N 46°12' W 123°23'1418.7
2017-Mar-20 02:32N 46°10' W 123°03'215103.7
2017-Mar-20 02:32N 45°52' W 122°48'211366.7
2017-Mar-20 02:31N 46°10' W 123°03'40863.1
2017-Mar-20 02:28N 45°33' W 122°42'49351.6
2017-Mar-20 02:20N 46°12' W 123°23'1417.6
2017-Mar-20 01:32N 46°10' W 123°03'0 0.3
2017-Mar-20 01:31N 46°10' W 123°03'40852.8
2017-Mar-20 01:28N 45°33' W 122°42'19519.4
2017-Mar-20 01:26N 45°52' W 122°48'32613.0
2017-Mar-20 01:23N 46°12' W 123°23'3237.7
2017-Mar-20 00:32N 45°52' W 122°48'211342.8
2017-Mar-20 00:31N 46°10' W 123°03'0 0.2
2017-Mar-20 00:29N 46°10' W 123°03'141932.4
2017-Mar-20 00:29N 46°12' W 123°23'494608.1
2017-Mar-20 00:28N 45°33' W 122°42'1921.1
2017-Mar-19 23:33N 45°52' W 122°48'211215.2
2017-Mar-19 23:32N 46°10' W 123°03'0 0.3
2017-Mar-19 23:31N 46°10' W 123°03'40162.3
2017-Mar-19 23:16N 45°33' W 122°42'1927.0
2017-Mar-19 22:33N 45°52' W 122°48'211297.6
2017-Mar-19 22:32N 46°10' W 123°03'0 0.3
2017-Mar-19 22:31N 46°10' W 123°03'40842.9
2017-Mar-19 22:28N 45°33' W 122°42'1921.1
2017-Mar-19 21:33N 45°52' W 122°48'211297.6
2017-Mar-19 21:32N 46°10' W 123°03'0 0.1
2017-Mar-19 21:28N 46°10' W 123°03'40416.6
2017-Mar-19 21:22N 45°33' W 122°42'1923.7
2017-Mar-19 20:33N 45°52' W 122°48'211234.8
2017-Mar-19 20:32N 46°10' W 123°03'0 0.3
2017-Mar-19 20:31N 46°10' W 123°03'40407.2
2017-Mar-19 20:25N 45°33' W 122°42'49204.3
2017-Mar-19 20:11N 46°12' W 123°23'1421.7
2017-Mar-19 19:32N 46°10' W 123°03'40588.3
2017-Mar-19 19:28N 45°33' W 122°42'191220.7
2017-Mar-19 19:27N 45°52' W 122°48'21575.5
2017-Mar-19 19:25N 46°10' W 123°03'1459.3
2017-Mar-19 19:11N 46°12' W 123°23'3251.0
2017-Mar-19 18:33N 45°52' W 122°48'19565.7
2017-Mar-19 18:31N 45°33' W 122°42'4012009.9
2017-Mar-19 18:31N 46°10' W 123°03'0 0.2
2017-Mar-19 18:29N 46°10' W 123°03'14128.2
2017-Mar-19 18:23N 46°12' W 123°23'1416.6
2017-Mar-19 17:32N 46°10' W 123°03'0 0.1
2017-Mar-19 17:28N 46°10' W 123°03'211779.9
2017-Mar-19 17:27N 45°52' W 122°48'19226.0
2017-Mar-19 17:22N 45°33' W 122°42'1922.3
2017-Mar-19 16:30N 45°52' W 122°48'211417.7
2017-Mar-19 16:29N 46°10' W 123°03'0 0.3
2017-Mar-19 16:28N 46°10' W 123°03'1475.1
2017-Mar-19 16:17N 46°12' W 123°23'49437.7
2017-Mar-19 16:10N 45°33' W 122°42'4063.4
2017-Mar-19 15:32N 46°10' W 123°03'21617.4
2017-Mar-19 15:30N 45°52' W 122°48'32262.6
2017-Mar-19 15:23N 46°12' W 123°23'14985.2
2017-Mar-19 15:22N 46°10' W 123°03'40272.5
2017-Mar-19 15:13N 45°33' W 122°42'1929.0
2017-Mar-19 14:33N 45°52' W 122°48'19580.0
2017-Mar-19 14:31N 45°33' W 122°42'401253.4
2017-Mar-19 14:29N 46°10' W 123°03'142009.9
2017-Mar-19 14:29N 46°12' W 123°23'14930.5
2017-Mar-19 14:28N 46°10' W 123°03'2123.3
2017-Mar-19 13:33N 45°52' W 122°48'211343.1
2017-Mar-19 13:32N 46°10' W 123°03'402089.3
2017-Mar-19 13:31N 45°33' W 122°42'4013103.5
2017-Mar-19 13:31N 46°10' W 123°03'14102.5
2017-Mar-19 13:23N 46°12' W 123°23'3238.7
2017-Mar-19 12:33N 45°52' W 122°48'211444.4
2017-Mar-19 12:32N 46°10' W 123°03'0 0.3
2017-Mar-19 12:31N 46°10' W 123°03'14395.6
2017-Mar-19 12:29N 46°12' W 123°23'1414.5
2017-Mar-19 11:31N 46°10' W 123°03'211471.9
2017-Mar-19 11:30N 45°52' W 122°48'211562.4
2017-Mar-19 11:29N 46°10' W 123°03'40567.6
2017-Mar-19 11:25N 45°33' W 122°42'49350.2
2017-Mar-19 11:17N 46°12' W 123°23'3244.1
2017-Mar-19 10:33N 45°52' W 122°48'211501.1
2017-Mar-19 10:32N 46°10' W 123°03'0 0.3
2017-Mar-19 10:31N 46°10' W 123°03'2122.1
2017-Mar-19 09:33N 45°52' W 122°48'211472.2
2017-Mar-19 09:32N 46°10' W 123°03'141620.7
2017-Mar-19 09:32N 46°12' W 123°23'14214.7
2017-Mar-19 09:28N 46°10' W 123°03'2123.3
2017-Mar-19 08:33N 45°52' W 122°48'321295.1
2017-Mar-19 08:32N 46°12' W 123°23'141168.5
2017-Mar-19 08:31N 46°10' W 123°03'0 0.0
2017-Mar-19 08:23N 46°10' W 123°03'2125.5
2017-Mar-19 07:33N 45°52' W 122°48'321164.2
2017-Mar-19 07:31N 46°12' W 123°23'141358.0
2017-Mar-19 07:31N 46°10' W 123°03'0 0.0
2017-Mar-19 07:23N 46°10' W 123°03'0 0.0
2017-Mar-19 06:31N 46°10' W 123°03'211739.5
2017-Mar-19 06:30N 45°52' W 122°48'211472.2
2017-Mar-19 06:29N 46°10' W 123°03'141092.2
2017-Mar-19 06:28N 46°12' W 123°23'3234.7
2017-Mar-19 05:33N 45°52' W 122°48'21579.8
2017-Mar-19 05:31N 46°10' W 123°03'0 0.2
2017-Mar-19 05:29N 46°10' W 123°03'1485.6
2017-Mar-19 05:19N 46°12' W 123°23'3241.3
2017-Mar-19 04:33N 45°52' W 122°48'21579.8
2017-Mar-19 04:31N 46°10' W 123°03'0 0.2
2017-Mar-19 04:29N 46°10' W 123°03'1453.0
2017-Mar-19 04:13N 46°12' W 123°23'3247.6
2017-Mar-19 03:33N 45°52' W 122°48'211531.1
2017-Mar-19 03:32N 46°10' W 123°03'141092.2
2017-Mar-19 03:31N 46°12' W 123°23'49454.8
2017-Mar-19 03:25N 45°33' W 122°42'4011087.6
2017-Mar-19 03:25N 46°10' W 123°03'0 0.0
2017-Mar-19 02:31N 46°10' W 123°03'0 0.2
2017-Mar-19 02:29N 46°10' W 123°03'14985.2
2017-Mar-19 02:28N 46°12' W 123°23'32438.2
2017-Mar-19 02:24N 45°52' W 122°48'19105.3
2017-Mar-19 02:13N 45°33' W 122°42'1929.0
2017-Mar-19 01:33N 45°52' W 122°48'21335.8
2017-Mar-19 01:29N 46°10' W 123°03'0 0.1
2017-Mar-19 01:25N 46°10' W 123°03'14157.0
2017-Mar-19 01:20N 46°12' W 123°23'49445.6
2017-Mar-19 01:13N 45°33' W 122°42'1929.1
2017-Mar-19 00:33N 45°52' W 122°48'211562.4
2017-Mar-19 00:32N 46°10' W 123°03'141092.2
2017-Mar-19 00:31N 46°12' W 123°23'141522.6
2017-Mar-19 00:31N 46°10' W 123°03'40269.4
2017-Mar-19 00:22N 45°33' W 122°42'1923.7
2017-Mar-18 23:33N 45°52' W 122°48'21243.0
2017-Mar-18 23:28N 46°10' W 123°03'0 0.2
2017-Mar-18 23:26N 46°10' W 123°03'14122.8
2017-Mar-18 23:19N 46°12' W 123°23'49189.1
2017-Mar-18 23:04N 45°33' W 122°42'4075.7
2017-Mar-18 22:32N 46°10' W 123°03'0 0.1
2017-Mar-18 22:28N 46°10' W 123°03'211779.9
2017-Mar-18 22:27N 45°52' W 122°48'321176.1
2017-Mar-18 22:25N 46°12' W 123°23'49189.1
2017-Mar-18 22:10N 45°33' W 122°42'1931.4
2017-Mar-18 21:33N 45°52' W 122°48'211701.2
2017-Mar-18 21:32N 46°10' W 123°03'401974.5
2017-Mar-18 21:31N 45°33' W 122°42'409607.9
2017-Mar-18 21:31N 46°10' W 123°03'1448.2
2017-Mar-18 21:13N 46°12' W 123°23'3247.5
2017-Mar-18 20:33N 45°52' W 122°48'211701.2
2017-Mar-18 20:32N 46°10' W 123°03'141025.4
2017-Mar-18 20:31N 46°12' W 123°23'14126.2
2017-Mar-18 20:25N 46°10' W 123°03'40411.8
2017-Mar-18 20:19N 45°33' W 122°42'4049.9
2017-Mar-18 19:31N 46°10' W 123°03'211628.5
2017-Mar-18 19:30N 45°52' W 122°48'21341.8
2017-Mar-18 19:26N 46°10' W 123°03'1444.3
2017-Mar-18 19:07N 46°12' W 123°23'3255.8
2017-Mar-18 18:33N 45°52' W 122°48'21575.5
2017-Mar-18 18:31N 46°10' W 123°03'0 0.2
2017-Mar-18 18:29N 46°10' W 123°03'2122.7
2017-Mar-18 17:33N 45°52' W 122°48'21571.0
2017-Mar-18 17:31N 46°10' W 123°03'0 0.2
2017-Mar-18 17:29N 46°10' W 123°03'40329.1
2017-Mar-18 17:22N 45°33' W 122°42'491137.0
2017-Mar-18 17:19N 46°12' W 123°23'3241.4
2017-Mar-18 16:33N 45°52' W 122°48'211739.5
2017-Mar-18 16:32N 46°10' W 123°03'0 0.1
2017-Mar-18 16:28N 46°10' W 123°03'40414.2
2017-Mar-18 16:22N 45°33' W 122°42'491137.1
2017-Mar-18 16:19N 46°12' W 123°23'3241.4
2017-Mar-18 15:33N 45°52' W 122°48'211963.0
2017-Mar-18 15:32N 46°10' W 123°03'14948.0
2017-Mar-18 15:32N 46°12' W 123°23'141196.3
2017-Mar-18 15:31N 46°10' W 123°03'40101.2
2017-Mar-18 15:07N 45°33' W 122°42'1934.1
2017-Mar-18 14:33N 45°52' W 122°48'19565.9
2017-Mar-18 14:31N 45°33' W 122°42'4016015.4
2017-Mar-18 14:31N 46°10' W 123°03'0 0.2
2017-Mar-18 14:29N 46°10' W 123°03'14247.5
2017-Mar-18 14:25N 46°12' W 123°23'3236.6
2017-Mar-18 13:33N 45°52' W 122°48'321213.3
2017-Mar-18 13:31N 46°12' W 123°23'496734.9
2017-Mar-18 13:31N 45°33' W 122°42'4018017.3
2017-Mar-18 13:31N 46°10' W 123°03'0 0.2
2017-Mar-18 13:29N 46°10' W 123°03'2122.9
2017-Mar-18 12:33N 45°52' W 122°48'211125.8
2017-Mar-18 12:32N 46°10' W 123°03'142009.7
2017-Mar-18 12:32N 46°12' W 123°23'141225.5
2017-Mar-18 12:31N 46°10' W 123°03'40413.0
2017-Mar-18 12:25N 45°33' W 122°42'4045.2
2017-Mar-18 11:32N 46°10' W 123°03'141794.4
2017-Mar-18 11:31N 46°12' W 123°23'141477.8
2017-Mar-18 11:31N 46°10' W 123°03'211530.7
2017-Mar-18 11:30N 45°52' W 122°48'19229.7
2017-Mar-18 11:25N 45°33' W 122°42'1922.3
2017-Mar-18 10:33N 45°52' W 122°48'321176.1
2017-Mar-18 10:31N 46°12' W 123°23'14237.0
2017-Mar-18 10:28N 46°10' W 123°03'0 0.1
2017-Mar-18 10:23N 46°10' W 123°03'2125.6
2017-Mar-18 09:33N 45°52' W 122°48'211142.6
2017-Mar-18 09:32N 46°10' W 123°03'402720.0
2017-Mar-18 09:31N 45°33' W 122°42'4013103.5
2017-Mar-18 09:31N 46°10' W 123°03'1473.2
2017-Mar-18 09:19N 46°12' W 123°23'3241.4
2017-Mar-18 08:33N 45°52' W 122°48'32423.7
2017-Mar-18 08:29N 46°12' W 123°23'141256.2
2017-Mar-18 08:28N 46°10' W 123°03'0 0.2
2017-Mar-18 08:26N 46°10' W 123°03'0 0.0
2017-Mar-18 07:32N 46°10' W 123°03'141674.8
2017-Mar-18 07:32N 46°12' W 123°23'14227.4
2017-Mar-18 07:28N 46°10' W 123°03'211500.7
2017-Mar-18 07:27N 45°52' W 122°48'3235.5
2017-Mar-18 06:33N 46°12' W 123°23'14415.3
2017-Mar-18 06:31N 46°10' W 123°03'0 0.2
2017-Mar-18 06:29N 46°10' W 123°03'21696.0
2017-Mar-18 06:27N 45°52' W 122°48'0 0.0
2017-Mar-18 05:33N 45°52' W 122°48'211093.7
2017-Mar-18 05:32N 46°10' W 123°03'14165.8
2017-Mar-18 05:27N 46°12' W 123°23'14415.3
2017-Mar-18 05:25N 46°10' W 123°03'0 0.0
2017-Mar-18 04:32N 46°10' W 123°03'0 0.3
2017-Mar-18 04:31N 46°10' W 123°03'211866.8
2017-Mar-18 04:30N 45°52' W 122°48'32208.1
2017-Mar-18 04:21N 46°12' W 123°23'3240.2
2017-Mar-18 03:33N 45°52' W 122°48'21542.8
2017-Mar-18 03:31N 46°10' W 123°03'0 0.0
2017-Mar-18 03:23N 46°10' W 123°03'14170.9
2017-Mar-18 03:18N 46°12' W 123°23'0 0.0
2017-Mar-18 02:30N 46°12' W 123°23'14418.7
2017-Mar-18 02:28N 46°10' W 123°03'211500.7
2017-Mar-18 02:27N 45°52' W 122°48'211275.9
2017-Mar-18 02:26N 46°10' W 123°03'0 0.0
2017-Mar-18 01:31N 46°10' W 123°03'141004.9
2017-Mar-18 01:30N 46°12' W 123°23'14207.6
2017-Mar-18 01:26N 46°10' W 123°03'21689.7
2017-Mar-18 01:24N 45°52' W 122°48'0 0.0
2017-Mar-18 00:33N 45°52' W 122°48'212251.6
2017-Mar-18 00:33N 46°10' W 123°03'0 0.0
2017-Mar-18 00:25N 46°10' W 123°03'14930.5
2017-Mar-18 00:24N 46°12' W 123°23'3237.7
2017-Mar-17 23:33N 45°52' W 122°48'212319.9
2017-Mar-17 23:32N 46°10' W 123°03'0 0.1
2017-Mar-17 23:28N 46°10' W 123°03'1452.6
2017-Mar-17 23:12N 46°12' W 123°23'1421.0
2017-Mar-17 22:32N 46°10' W 123°03'0 0.3
2017-Mar-17 22:31N 46°10' W 123°03'211628.5
2017-Mar-17 22:30N 45°52' W 122°48'3279.7
2017-Mar-17 22:06N 46°12' W 123°23'1424.7
2017-Mar-17 21:32N 46°10' W 123°03'  
Track history (hours):
 
Tides and Currents Weather Stations Pressure Air Temp Water Temp Dewpoint Dewpoint Depression Visibility Wind Speed Wind Dir Waves Ship Positions

Zarling

Owner: Clean Rivers Co-op, Portland, OR. More information available from US FCC via Universal Licensing System.

Last reported at 2017-Mar-27 21:31 UTC. Time now 2017-Mar-27 22:18 UTC.
Position N 46°12' W 123°23'.

Length 12 m.

Type: Pollution control. MMSI: 3699126.

Date/timePositionNaut miles runAvg speedWind from/ knotsBaromVisibWave heightAir tempDewpointWater temp
2017-Mar-27 21:31N 46°12' W 123°23'322955.4
2017-Mar-27 21:31N 45°52' W 122°48'211319.6
2017-Mar-27 21:30N 46°10' W 123°03'4036034.6
2017-Mar-27 21:30N 45°33' W 122°42'401264.5
2017-Mar-27 21:28N 46°10' W 123°03'0 0.0
2017-Mar-27 20:33N 46°10' W 123°03'21612.3
2017-Mar-27 20:31N 45°52' W 122°48'32835.2
2017-Mar-27 20:28N 46°12' W 123°23'14129.2
2017-Mar-27 20:22N 46°10' W 123°03'40235.2
2017-Mar-27 20:12N 45°33' W 122°42'0 0.0
2017-Mar-27 19:33N 45°33' W 122°42'492432.1
2017-Mar-27 19:32N 46°12' W 123°23'322619.5
2017-Mar-27 19:31N 45°52' W 122°48'211297.2
2017-Mar-27 19:30N 46°10' W 123°03'0 0.1
2017-Mar-27 19:25N 46°10' W 123°03'4046.1
2017-Mar-27 18:33N 45°33' W 122°42'4072069.2
2017-Mar-27 18:33N 46°10' W 123°03'0 0.2
2017-Mar-27 18:31N 46°10' W 123°03'2110936.5
2017-Mar-27 18:31N 45°52' W 122°48'32110.8
2017-Mar-27 18:13N 46°12' W 123°23'1420.6
2017-Mar-27 17:33N 46°10' W 123°03'21637.8
2017-Mar-27 17:31N 45°52' W 122°48'191104.8
2017-Mar-27 17:30N 45°33' W 122°42'492188.8
2017-Mar-27 17:28N 46°12' W 123°23'141620.7
2017-Mar-27 17:28N 46°10' W 123°03'4043.5
2017-Mar-27 16:33N 45°33' W 122°42'492366.3
2017-Mar-27 16:32N 46°12' W 123°23'141395.6
2017-Mar-27 16:31N 46°10' W 123°03'0 0.3
2017-Mar-27 16:30N 46°10' W 123°03'21637.8
2017-Mar-27 16:28N 45°52' W 122°48'1921.1
2017-Mar-27 15:33N 45°33' W 122°42'401347.1
2017-Mar-27 15:31N 46°10' W 123°03'215887.5
2017-Mar-27 15:31N 45°52' W 122°48'32835.1
2017-Mar-27 15:28N 46°12' W 123°23'14512.7
2017-Mar-27 15:27N 46°10' W 123°03'4044.4
2017-Mar-27 14:33N 45°33' W 122°42'19590.0
2017-Mar-27 14:31N 45°52' W 122°48'32817.3
2017-Mar-27 14:28N 46°12' W 123°23'14518.0
2017-Mar-27 14:27N 46°10' W 123°03'0 0.1
2017-Mar-27 14:22N 46°10' W 123°03'0 0.0
2017-Mar-27 13:33N 46°10' W 123°03'4036034.6
2017-Mar-27 13:33N 45°33' W 122°42'401334.8
2017-Mar-27 13:31N 46°10' W 123°03'217655.6
2017-Mar-27 13:31N 45°52' W 122°48'32361.3
2017-Mar-27 13:25N 46°12' W 123°23'1415.9
2017-Mar-27 12:33N 46°10' W 123°03'4048046.1
2017-Mar-27 12:33N 45°33' W 122°42'492274.1
2017-Mar-27 12:31N 46°12' W 123°23'141570.1
2017-Mar-27 12:31N 46°10' W 123°03'218506.2
2017-Mar-27 12:31N 45°52' W 122°48'1920.0
2017-Mar-27 11:33N 45°33' W 122°42'492245.0
2017-Mar-27 11:31N 46°12' W 123°23'141674.8
2017-Mar-27 11:31N 46°10' W 123°03'216379.7
2017-Mar-27 11:31N 45°52' W 122°48'211319.6
2017-Mar-27 11:30N 46°10' W 123°03'4042.1
2017-Mar-27 10:33N 45°33' W 122°42'492273.9
2017-Mar-27 10:31N 46°12' W 123°23'141620.7
2017-Mar-27 10:31N 46°10' W 123°03'215888.9
2017-Mar-27 10:31N 45°52' W 122°48'21324.3
2017-Mar-27 10:27N 46°10' W 123°03'1415.1
2017-Mar-27 09:31N 46°12' W 123°23'141932.4
2017-Mar-27 09:31N 46°10' W 123°03'21398.7
2017-Mar-27 09:28N 45°52' W 122°48'211342.8
2017-Mar-27 09:27N 46°10' W 123°03'4024023.1
2017-Mar-27 09:27N 45°33' W 122°42'0 0.0
2017-Mar-27 08:33N 45°33' W 122°42'492244.7
2017-Mar-27 08:31N 46°12' W 123°23'141794.4
2017-Mar-27 08:31N 46°10' W 123°03'216379.7
2017-Mar-27 08:31N 45°52' W 122°48'211275.6
2017-Mar-27 08:30N 46°10' W 123°03'1414.4
2017-Mar-27 07:32N 46°12' W 123°23'322810.9
2017-Mar-27 07:31N 45°52' W 122°48'211275.3
2017-Mar-27 07:30N 46°10' W 123°03'0 0.2
2017-Mar-27 07:28N 46°10' W 123°03'401896.8
2017-Mar-27 07:27N 45°33' W 122°42'0 0.0
2017-Mar-27 06:33N 45°33' W 122°42'492303.8
2017-Mar-27 06:31N 46°12' W 123°23'322744.3
2017-Mar-27 06:31N 45°52' W 122°48'21325.7
2017-Mar-27 06:27N 46°10' W 123°03'0 0.2
2017-Mar-27 06:25N 46°10' W 123°03'1415.6
2017-Mar-27 05:31N 46°12' W 123°23'142009.7
2017-Mar-27 05:31N 46°10' W 123°03'0 0.3
2017-Mar-27 05:30N 46°10' W 123°03'21643.2
2017-Mar-27 05:28N 45°52' W 122°48'191160.0
2017-Mar-27 05:27N 45°33' W 122°42'4044.5
2017-Mar-27 04:33N 46°10' W 123°03'4024019.7
2017-Mar-27 04:33N 45°33' W 122°42'492216.3
2017-Mar-27 04:31N 46°12' W 123°23'142009.7
2017-Mar-27 04:31N 46°10' W 123°03'21388.5
2017-Mar-27 04:28N 45°52' W 122°48'2123.2
2017-Mar-27 03:33N 46°10' W 123°03'4028823.7
2017-Mar-27 03:33N 45°33' W 122°42'401441.4
2017-Mar-27 03:31N 46°10' W 123°03'214503.3
2017-Mar-27 03:31N 45°52' W 122°48'32231.4
2017-Mar-27 03:23N 46°12' W 123°23'1415.0
2017-Mar-27 02:27N 46°10' W 123°03'21253.4
2017-Mar-27 02:22N 45°52' W 122°48'2186.7
2017-Mar-27 02:07N 46°10' W 123°03'0 0.0
2017-Mar-27 01:33N 46°10' W 123°03'0 0.2
2017-Mar-27 01:31N 46°10' W 123°03'21384.7
2017-Mar-27 01:28N 45°52' W 122°48'32132.2
2017-Mar-27 01:13N 46°12' W 123°23'1420.7
2017-Mar-27 00:33N 46°10' W 123°03'4028823.7
2017-Mar-27 00:33N 45°33' W 122°42'401441.4
2017-Mar-27 00:31N 46°10' W 123°03'14293.8
2017-Mar-27 00:28N 46°12' W 123°23'32562.3
2017-Mar-27 00:25N 45°52' W 122°48'1922.3
2017-Mar-26 23:33N 45°33' W 122°42'49634.4
2017-Mar-26 23:28N 46°12' W 123°23'145582.6
2017-Mar-26 23:28N 46°10' W 123°03'214503.3
2017-Mar-26 23:28N 45°52' W 122°48'211366.7
2017-Mar-26 23:27N 46°10' W 123°03'4044.4
2017-Mar-26 22:33N 45°33' W 122°42'491903.3
2017-Mar-26 22:31N 46°12' W 123°23'32554.1
2017-Mar-26 22:28N 45°52' W 122°48'211366.7
2017-Mar-26 22:27N 46°10' W 123°03'0 0.2
2017-Mar-26 22:25N 46°10' W 123°03'0 0.0
2017-Mar-26 21:33N 46°10' W 123°03'0 0.2
2017-Mar-26 21:31N 46°10' W 123°03'214253.1
2017-Mar-26 21:31N 45°52' W 122°48'19290.0
2017-Mar-26 21:27N 45°33' W 122°42'49277.1
2017-Mar-26 21:16N 46°12' W 123°23'3242.3
2017-Mar-26 20:31N 45°52' W 122°48'211342.8
2017-Mar-26 20:30N 46°10' W 123°03'0 0.2
2017-Mar-26 20:28N 46°10' W 123°03'401736.8
2017-Mar-26 20:27N 45°33' W 122°42'49388.3
2017-Mar-26 20:19N 46°12' W 123°23'4962.7
2017-Mar-26 19:33N 45°33' W 122°42'40837.9
2017-Mar-26 19:30N 46°10' W 123°03'0 0.2
2017-Mar-26 19:28N 46°10' W 123°03'213827.8
2017-Mar-26 19:28N 45°52' W 122°48'32350.3
2017-Mar-26 19:22N 46°12' W 123°23'1417.0
2017-Mar-26 18:33N 46°10' W 123°03'401426.9
2017-Mar-26 18:31N 45°33' W 122°42'193163.7
2017-Mar-26 18:31N 45°52' W 122°48'21469.6
2017-Mar-26 18:28N 46°10' W 123°03'0 0.0
2017-Mar-26 17:31N 46°10' W 123°03'213328.5
2017-Mar-26 17:31N 45°52' W 122°48'21324.3
2017-Mar-26 17:27N 46°10' W 123°03'401486.0
2017-Mar-26 17:25N 45°33' W 122°42'4045.9
2017-Mar-26 16:33N 46°10' W 123°03'401533.4
2017-Mar-26 16:31N 45°33' W 122°42'4020594.1
2017-Mar-26 16:31N 46°10' W 123°03'213645.5
2017-Mar-26 16:31N 45°52' W 122°48'2122.0
2017-Mar-26 15:33N 46°10' W 123°03'401533.2
2017-Mar-26 15:31N 45°33' W 122°42'192485.0
2017-Mar-26 15:31N 45°52' W 122°48'21493.9
2017-Mar-26 15:28N 46°10' W 123°03'1440.0
2017-Mar-26 15:07N 46°12' W 123°23'1424.3
2017-Mar-26 14:33N 46°10' W 123°03'401517.2
2017-Mar-26 14:31N 45°33' W 122°42'4987554.0
2017-Mar-26 14:31N 46°12' W 123°23'1416747.7
2017-Mar-26 14:31N 46°10' W 123°03'213062.2
2017-Mar-26 14:31N 45°52' W 122°48'2122.0
2017-Mar-26 13:33N 46°10' W 123°03'401486.0
2017-Mar-26 13:31N 45°33' W 122°42'4036039.6
2017-Mar-26 13:31N 46°10' W 123°03'14282.3
2017-Mar-26 13:28N 46°12' W 123°23'32300.1
2017-Mar-26 13:22N 45°52' W 122°48'1922.9
2017-Mar-26 12:31N 45°33' W 122°42'4048052.8
2017-Mar-26 12:31N 46°10' W 123°03'213645.5
2017-Mar-26 12:31N 45°52' W 122°48'32738.8
2017-Mar-26 12:28N 46°12' W 123°23'14194.0
2017-Mar-26 12:24N 46°10' W 123°03'1416.5
2017-Mar-26 11:33N 46°12' W 123°23'142512.3
2017-Mar-26 11:33N 46°10' W 123°03'40524.1
2017-Mar-26 11:28N 45°33' W 122°42'4048052.8
2017-Mar-26 11:28N 46°10' W 123°03'212835.4
2017-Mar-26 11:28N 45°52' W 122°48'2122.6
2017-Mar-26 10:31N 46°10' W 123°03'14851.6
2017-Mar-26 10:30N 46°12' W 123°23'142093.6
2017-Mar-26 10:30N 46°10' W 123°03'21612.3
2017-Mar-26 10:28N 45°52' W 122°48'1920.5
2017-Mar-26 09:31N 45°33' W 122°42'192577.8
2017-Mar-26 09:31N 45°52' W 122°48'21497.1
2017-Mar-26 09:28N 46°10' W 123°03'0 0.3
2017-Mar-26 09:27N 46°10' W 123°03'14312.1
2017-Mar-26 09:24N 46°12' W 123°23'0 0.0
2017-Mar-26 08:33N 46°12' W 123°23'142644.6
2017-Mar-26 08:33N 46°10' W 123°03'401501.2
2017-Mar-26 08:31N 45°33' W 122°42'192676.2
2017-Mar-26 08:31N 45°52' W 122°48'21490.7
2017-Mar-26 08:28N 46°10' W 123°03'0 0.0
2017-Mar-26 07:33N 46°10' W 123°03'401486.0
2017-Mar-26 07:31N 45°33' W 122°42'192784.1
2017-Mar-26 07:31N 45°52' W 122°48'323201.7
2017-Mar-26 07:30N 46°12' W 123°23'14411.8
2017-Mar-26 07:28N 46°10' W 123°03'1415.2
2017-Mar-26 06:33N 46°12' W 123°23'142009.9
2017-Mar-26 06:33N 46°10' W 123°03'401566.7
2017-Mar-26 06:31N 45°33' W 122°42'40144103.6
2017-Mar-26 06:31N 46°10' W 123°03'21365.8
2017-Mar-26 06:28N 45°52' W 122°48'2122.6
2017-Mar-26 05:31N 46°10' W 123°03'0 0.2
2017-Mar-26 05:30N 46°10' W 123°03'21643.2
2017-Mar-26 05:28N 45°52' W 122°48'19454.9
2017-Mar-26 05:25N 45°33' W 122°42'49223.9
2017-Mar-26 05:12N 46°12' W 123°23'1421.2
2017-Mar-26 04:33N 46°10' W 123°03'0 0.2
2017-Mar-26 04:31N 46°10' W 123°03'212639.9
2017-Mar-26 04:31N 45°52' W 122°48'323201.7
2017-Mar-26 04:30N 46°12' W 123°23'49587.6
2017-Mar-26 04:25N 45°33' W 122°42'4045.9
2017-Mar-26 03:33N 46°10' W 123°03'0 0.2
2017-Mar-26 03:31N 46°10' W 123°03'212734.1
2017-Mar-26 03:31N 45°52' W 122°48'19209.6
2017-Mar-26 03:25N 45°33' W 122°42'4044.5
2017-Mar-26 02:31N 46°10' W 123°03'4048052.8
2017-Mar-26 02:31N 45°33' W 122°42'492824.3
2017-Mar-26 02:30N 46°12' W 123°23'141861.0
2017-Mar-26 02:30N 46°10' W 123°03'21637.8
2017-Mar-26 02:28N 45°52' W 122°48'2123.3
2017-Mar-26 01:33N 46°10' W 123°03'0 0.2
2017-Mar-26 01:31N 46°10' W 123°03'40144158.5
2017-Mar-26 01:31N 45°33' W 122°42'19336.2
2017-Mar-26 01:28N 45°52' W 122°48'32531.2
2017-Mar-26 01:24N 46°12' W 123°23'1416.3
2017-Mar-26 00:33N 46°10' W 123°03'0 0.2
2017-Mar-26 00:31N 46°10' W 123°03'14749.9
2017-Mar-26 00:30N 46°12' W 123°23'49367.9
2017-Mar-26 00:22N 45°33' W 122°42'19122.8
2017-Mar-26 00:13N 45°52' W 122°48'2130.7
2017-Mar-25 23:31N 46°10' W 123°03'14785.0
2017-Mar-25 23:30N 46°12' W 123°23'141932.6
2017-Mar-25 23:30N 46°10' W 123°03'21632.5
2017-Mar-25 23:28N 45°52' W 122°48'19135.9
2017-Mar-25 23:19N 45°33' W 122°42'4963.4
2017-Mar-25 22:33N 46°12' W 123°23'142392.7
2017-Mar-25 22:33N 46°10' W 123°03'212186.8
2017-Mar-25 22:32N 45°52' W 122°48'211319.9
2017-Mar-25 22:31N 46°10' W 123°03'4036034.6
2017-Mar-25 22:31N 45°33' W 122°42'4950.3
2017-Mar-25 21:33N 46°12' W 123°23'141932.6
2017-Mar-25 21:33N 46°10' W 123°03'0 0.2
2017-Mar-25 21:31N 46°10' W 123°03'21622.4
2017-Mar-25 21:29N 45°52' W 122°48'191200.0
2017-Mar-25 21:28N 45°33' W 122°42'4953.0
2017-Mar-25 20:33N 46°12' W 123°23'142392.7
2017-Mar-25 20:33N 46°10' W 123°03'212126.0
2017-Mar-25 20:32N 45°52' W 122°48'21323.0
2017-Mar-25 20:28N 46°10' W 123°03'40198.3
2017-Mar-25 20:16N 45°33' W 122°42'1926.3
2017-Mar-25 19:32N 45°52' W 122°48'321029.1
2017-Mar-25 19:30N 46°12' W 123°23'142184.6
2017-Mar-25 19:30N 46°10' W 123°03'0 0.2
2017-Mar-25 19:28N 46°10' W 123°03'0 0.0
2017-Mar-25 18:31N 46°10' W 123°03'14728.2
2017-Mar-25 18:30N 46°12' W 123°23'321646.6
2017-Mar-25 18:29N 45°52' W 122°48'21114.4
2017-Mar-25 18:18N 46°10' W 123°03'0 0.0
2017-Mar-25 17:33N 46°10' W 123°03'0 0.2
2017-Mar-25 17:31N 46°10' W 123°03'14749.9
2017-Mar-25 17:30N 46°12' W 123°23'321670.4
2017-Mar-25 17:29N 45°52' W 122°48'0 0.0
2017-Mar-25 16:32N 45°52' W 122°48'211822.8
2017-Mar-25 16:31N 46°10' W 123°03'0 0.2
2017-Mar-25 16:30N 46°10' W 123°03'14322.1
2017-Mar-25 16:27N 46°12' W 123°23'491336.6
2017-Mar-25 16:25N 45°33' W 122°42'4046.0
2017-Mar-25 15:33N 46°10' W 123°03'0 0.2
2017-Mar-25 15:31N 46°10' W 123°03'14717.8
2017-Mar-25 15:30N 46°12' W 123°23'321646.6
2017-Mar-25 15:29N 45°52' W 122°48'191179.7
2017-Mar-25 15:28N 45°33' W 122°42'4043.5
2017-Mar-25 14:33N 46°10' W 123°03'211444.1
2017-Mar-25 14:32N 45°52' W 122°48'321097.7
2017-Mar-25 14:30N 46°12' W 123°23'14448.6
2017-Mar-25 14:28N 46°10' W 123°03'40717.2
2017-Mar-25 14:25N 45°33' W 122°42'4956.3
2017-Mar-25 13:33N 46°12' W 123°23'321695.0
2017-Mar-25 13:32N 45°52' W 122°48'211867.2
2017-Mar-25 13:31N 46°10' W 123°03'0 0.2
2017-Mar-25 13:30N 46°10' W 123°03'40173.9
2017-Mar-25 13:16N 45°33' W 122°42'4055.7
2017-Mar-25 12:33N 46°10' W 123°03'0 0.2
2017-Mar-25 12:31N 46°10' W 123°03'14707.7
2017-Mar-25 12:30N 46°12' W 123°23'321578.7
2017-Mar-25 12:29N 45°52' W 122°48'191122.9
2017-Mar-25 12:28N 45°33' W 122°42'4043.6
2017-Mar-25 11:33N 46°10' W 123°03'211530.7
2017-Mar-25 11:32N 45°52' W 122°48'321047.8
2017-Mar-25 11:30N 46°12' W 123°23'14174.5
2017-Mar-25 11:25N 46°10' W 123°03'40380.4
2017-Mar-25 11:19N 45°33' W 122°42'4963.6
2017-Mar-25 10:33N 46°12' W 123°23'321746.4
2017-Mar-25 10:32N 45°52' W 122°48'191054.2
2017-Mar-25 10:31N 45°33' W 122°42'402001.6
2017-Mar-25 10:30N 46°10' W 123°03'0 0.3
2017-Mar-25 10:28N 46°10' W 123°03'1415.2
2017-Mar-25 09:33N 46°12' W 123°23'142392.7
2017-Mar-25 09:33N 46°10' W 123°03'211530.4
2017-Mar-25 09:32N 45°52' W 122°48'191200.4
2017-Mar-25 09:31N 45°33' W 122°42'40912.4
2017-Mar-25 09:28N 46°10' W 123°03'1415.2
2017-Mar-25 08:33N 46°12' W 123°23'142283.9
2017-Mar-25 08:33N 46°10' W 123°03'0 0.1
2017-Mar-25 08:28N 46°10' W 123°03'21531.6
2017-Mar-25 08:26N 45°52' W 122°48'19291.2
2017-Mar-25 08:22N 45°33' W 122°42'4959.8
2017-Mar-25 07:33N 46°12' W 123°23'142283.9
2017-Mar-25 07:33N 46°10' W 123°03'211471.9
2017-Mar-25 07:32N 45°52' W 122°48'212392.4
2017-Mar-25 07:31N 46°10' W 123°03'40112.2
2017-Mar-25 07:10N 45°33' W 122°42'4064.6
2017-Mar-25 06:33N 46°10' W 123°03'211530.7
2017-Mar-25 06:32N 45°52' W 122°48'212392.4
2017-Mar-25 06:31N 46°10' W 123°03'14669.9
2017-Mar-25 06:30N 46°12' W 123°23'49261.7
2017-Mar-25 06:19N 45°33' W 122°42'4051.9
2017-Mar-25 05:33N 46°10' W 123°03'401322.4
2017-Mar-25 05:31N 45°33' W 122°42'493725.7
2017-Mar-25 05:30N 46°12' W 123°23'14465.2
2017-Mar-25 05:28N 46°10' W 123°03'21524.4
2017-Mar-25 05:26N 45°52' W 122°48'3236.4
2017-Mar-25 04:33N 46°12' W 123°23'321623.2
2017-Mar-25 04:32N 45°52' W 122°48'19286.5
2017-Mar-25 04:28N 45°33' W 122°42'402030.1
2017-Mar-25 04:27N 46°10' W 123°03'0 0.3
2017-Mar-25 04:25N 46°10' W 123°03'1416.0
2017-Mar-25 03:33N 46°12' W 123°23'321646.6
2017-Mar-25 03:32N 45°52' W 122°48'191159.7
2017-Mar-25 03:31N 45°33' W 122°42'402001.6
2017-Mar-25 03:30N 46°10' W 123°03'0 0.1
2017-Mar-25 03:25N 46°10' W 123°03'1416.0
2017-Mar-25 02:33N 46°12' W 123°23'142644.6
2017-Mar-25 02:33N 46°10' W 123°03'211562.0
2017-Mar-25 02:32N 45°52' W 122°48'212469.5
2017-Mar-25 02:32N 46°10' W 123°03'0 0.0
2017-Mar-25 01:33N 46°10' W 123°03'211663.9
2017-Mar-25 01:32N 45°52' W 122°48'21362.8
2017-Mar-25 01:29N 46°10' W 123°03'14114.4
2017-Mar-25 01:21N 46°12' W 123°23'49170.0
2017-Mar-25 01:04N 45°33' W 122°42'1936.6
2017-Mar-25 00:32N 45°52' W 122°48'21517.1
2017-Mar-25 00:30N 46°10' W 123°03'0 0.3
2017-Mar-25 00:28N 46°10' W 123°03'14661.1
2017-Mar-25 00:27N 46°12' W 123°23'0 0.0
2017-Mar-24 23:33N 46°12' W 123°23'142512.3
2017-Mar-24 23:33N 46°10' W 123°03'401322.4
2017-Mar-24 23:31N 45°33' W 122°42'19575.2
2017-Mar-24 23:29N 45°52' W 122°48'212469.5
2017-Mar-24 23:28N 46°10' W 123°03'1415.1
2017-Mar-24 22:33N 46°12' W 123°23'321670.4
2017-Mar-24 22:32N 45°52' W 122°48'19289.9
2017-Mar-24 22:28N 45°33' W 122°42'402029.8
2017-Mar-24 22:27N 46°10' W 123°03'0 0.0
2017-Mar-24 22:20N 46°10' W 123°03'0 0.0
2017-Mar-24 21:33N 46°10' W 123°03'211663.9
2017-Mar-24 21:32N 45°52' W 122°48'321047.8
2017-Mar-24 21:30N 46°12' W 123°23'491316.6
2017-Mar-24 21:28N 45°33' W 122°42'40948.4
2017-Mar-24 21:25N 46°10' W 123°03'2123.9
2017-Mar-24 20:32N 45°52' W 122°48'21584.3
2017-Mar-24 20:30N 46°10' W 123°03'0 0.3
2017-Mar-24 20:29N 46°10' W 123°03'14191.0
2017-Mar-24 20:24N 46°12' W 123°23'491336.7
2017-Mar-24 20:22N 45°33' W 122°42'4959.8
2017-Mar-24 19:33N 46°12' W 123°23'14507.5
2017-Mar-24 19:32N 46°10' W 123°03'0 0.2
2017-Mar-24 19:30N 46°10' W 123°03'211739.5
2017-Mar-24 19:29N 45°52' W 122°48'19287.6
2017-Mar-24 19:25N 45°33' W 122°42'0 0.0
2017-Mar-24 18:31N 45°33' W 122°42'493573.3
2017-Mar-24 18:30N 46°12' W 123°23'142283.9
2017-Mar-24 18:30N 46°10' W 123°03'211594.1
2017-Mar-24 18:29N 45°52' W 122°48'212733.5
2017-Mar-24 18:29N 46°10' W 123°03'1415.1
2017-Mar-24 17:33N 46°12' W 123°23'14252.5
2017-Mar-24 17:30N 46°10' W 123°03'211562.0
2017-Mar-24 17:29N 45°52' W 122°48'212734.1
2017-Mar-24 17:29N 46°10' W 123°03'404504.3
2017-Mar-24 17:28N 45°33' W 122°42'4953.2
2017-Mar-24 16:33N 46°12' W 123°23'142392.7
2017-Mar-24 16:33N 46°10' W 123°03'211628.5
2017-Mar-24 16:32N 45°52' W 122°48'212734.1
2017-Mar-24 16:32N 46°10' W 123°03'40250.7
2017-Mar-24 16:22N 45°33' W 122°42'4048.9
2017-Mar-24 15:33N 46°10' W 123°03'211594.5
2017-Mar-24 15:32N 45°52' W 122°48'19291.1
2017-Mar-24 15:28N 45°33' W 122°42'493573.3
2017-Mar-24 15:27N 46°12' W 123°23'14182.0
2017-Mar-24 15:23N 46°10' W 123°03'0 0.0
2017-Mar-24 14:32N 46°10' W 123°03'21503.7
2017-Mar-24 14:29N 45°52' W 122°48'21579.8
2017-Mar-24 14:27N 46°10' W 123°03'14148.7
2017-Mar-24 14:21N 46°12' W 123°23'49563.1
2017-Mar-24 14:16N 45°33' W 122°42'4055.6
2017-Mar-24 13:33N 46°10' W 123°03'211663.9
2017-Mar-24 13:32N 45°52' W 122°48'212639.9
2017-Mar-24 13:32N 46°10' W 123°03'14605.3
2017-Mar-24 13:30N 46°12' W 123°23'49144.8
2017-Mar-24 13:10N 45°33' W 122°42'4064.5
2017-Mar-24 12:33N 46°10' W 123°03'211594.1
2017-Mar-24 12:32N 45°52' W 122°48'212943.7
2017-Mar-24 12:32N 46°10' W 123°03'14591.1
2017-Mar-24 12:30N 46°12' W 123°23'0 0.0
2017-Mar-24 11:33N 46°12' W 123°23'142009.9
2017-Mar-24 11:33N 46°10' W 123°03'21335.7
2017-Mar-24 11:29N 45°52' W 122°48'213328.5
2017-Mar-24 11:29N 46°10' W 123°03'403793.1
2017-Mar-24 11:28N 45°33' W 122°42'4043.6
2017-Mar-24 10:33N 46°10' W 123°03'211562.0
2017-Mar-24 10:32N 45°52' W 122°48'213479.8
2017-Mar-24 10:32N 46°10' W 123°03'14188.9
2017-Mar-24 10:27N 46°12' W 123°23'0 0.0
2017-Mar-24 09:33N 46°12' W 123°23'321695.0
2017-Mar-24 09:32N 45°52' W 122°48'213062.2
2017-Mar-24 09:32N 46°10' W 123°03'403896.2
2017-Mar-24 09:31N 45°33' W 122°42'40334.4
2017-Mar-24 09:24N 46°10' W 123°03'1416.5
2017-Mar-24 08:33N 46°12' W 123°23'321695.0
2017-Mar-24 08:32N 45°52' W 122°48'212944.5
2017-Mar-24 08:32N 46°10' W 123°03'404003.8
2017-Mar-24 08:31N 45°33' W 122°42'40569.6
2017-Mar-24 08:27N 46°10' W 123°03'0 0.0
2017-Mar-24 07:33N 46°10' W 123°03'14324.2
2017-Mar-24 07:30N 46°12' W 123°23'321578.9
2017-Mar-24 07:29N 45°52' W 122°48'213827.8
2017-Mar-24 07:29N 46°10' W 123°03'403603.5
2017-Mar-24 07:28N 45°33' W 122°42'4953.2
2017-Mar-24 06:33N 46°12' W 123°23'321695.0
2017-Mar-24 06:32N 45°52' W 122°48'212944.5
2017-Mar-24 06:32N 46°10' W 123°03'403604.0
2017-Mar-24 06:31N 45°33' W 122°42'402059.1
2017-Mar-24 06:30N 46°10' W 123°03'1414.8
2017-Mar-24 05:33N 46°12' W 123°23'142184.6
2017-Mar-24 05:33N 46°10' W 123°03'211594.5
2017-Mar-24 05:32N 45°52' W 122°48'21382.8
2017-Mar-24 05:29N 46°10' W 123°03'40362.2
2017-Mar-24 05:22N 45°33' W 122°42'4048.8
2017-Mar-24 04:33N 46°10' W 123°03'211663.4
2017-Mar-24 04:32N 45°52' W 122°48'213189.0
2017-Mar-24 04:32N 46°10' W 123°03'40249.4
2017-Mar-24 04:22N 45°33' W 122°42'493367.5
2017-Mar-24 04:21N 46°12' W 123°23'4954.9
2017-Mar-24 03:28N 45°33' W 122°42'402089.0
2017-Mar-24 03:27N 46°10' W 123°03'211628.5
2017-Mar-24 03:26N 45°52' W 122°48'21380.9
2017-Mar-24 03:23N 46°10' W 123°03'14186.1
2017-Mar-24 03:18N 46°12' W 123°23'1418.5
2017-Mar-24 02:33N 46°10' W 123°03'211628.5
2017-Mar-24 02:32N 45°52' W 122°48'2169.5
2017-Mar-24 02:14N 46°10' W 123°03'14112.1
2017-Mar-24 02:06N 46°12' W 123°23'491326.4
2017-Mar-24 02:04N 45°33' W 122°42'4074.3
2017-Mar-24 01:32N 46°10' W 123°03'14570.9
2017-Mar-24 01:30N 46°12' W 123°23'142184.6
2017-Mar-24 01:30N 46°10' W 123°03'21329.9
2017-Mar-24 01:26N 45°52' W 122°48'2124.0
2017-Mar-24 00:33N 46°10' W 123°03'211594.5
2017-Mar-24 00:32N 45°52' W 122°48'214253.1
2017-Mar-24 00:32N 46°10' W 123°03'1432.9
2017-Mar-24 00:06N 46°12' W 123°23'1425.1
2017-Mar-23 23:33N 46°10' W 123°03'211594.5
2017-Mar-23 23:32N 45°52' W 122°48'214784.7
2017-Mar-23 23:32N 46°10' W 123°03'14111.2
2017-Mar-23 23:24N 46°12' W 123°23'49206.0
2017-Mar-23 23:10N 45°33' W 122°42'4064.5
2017-Mar-23 22:33N 46°10' W 123°03'21338.6
2017-Mar-23 22:29N 45°52' W 122°48'213479.0
2017-Mar-23 22:29N 46°10' W 123°03'14188.2
2017-Mar-23 22:24N 46°12' W 123°23'1416.3
2017-Mar-23 21:33N 46°10' W 123°03'211594.5
2017-Mar-23 21:32N 45°52' W 122°48'214253.1
2017-Mar-23 21:32N 46°10' W 123°03'14185.4
2017-Mar-23 21:27N 46°12' W 123°23'49261.4
2017-Mar-23 21:16N 45°33' W 122°42'4055.6
2017-Mar-23 20:33N 46°10' W 123°03'211500.7
2017-Mar-23 20:32N 45°52' W 122°48'215888.9
2017-Mar-23 20:32N 46°10' W 123°03'14546.1
2017-Mar-23 20:30N 46°12' W 123°23'3233.0
2017-Mar-23 19:32N 45°52' W 122°48'214498.8
2017-Mar-23 19:32N 46°10' W 123°03'0 1.3
2017-Mar-23 19:30N 46°10' W 123°03'40308.6
2017-Mar-23 19:22N 45°33' W 122°42'49297.8
2017-Mar-23 19:12N 46°12' W 123°23'3247.8
2017-Mar-23 18:32N 45°52' W 122°48'215103.7
2017-Mar-23 18:32N 46°10' W 123°03'14534.5
2017-Mar-23 18:30N 46°12' W 123°23'142009.9
2017-Mar-23 18:30N 46°10' W 123°03'401359.6
2017-Mar-23 18:28N 45°33' W 122°42'4953.3
2017-Mar-23 17:33N 46°12' W 123°23'142009.9
2017-Mar-23 17:33N 46°10' W 123°03'211562.0
2017-Mar-23 17:32N 45°52' W 122°48'215888.9
2017-Mar-23 17:32N 46°10' W 123°03'40110.3
2017-Mar-23 17:10N 45°33' W 122°42'4064.7
2017-Mar-23 16:33N 46°10' W 123°03'0 0.3
2017-Mar-23 16:32N 46°10' W 123°03'21466.8
2017-Mar-23 16:29N 45°52' W 122°48'19165.3
2017-Mar-23 16:22N 45°33' W 122°42'493648.1
2017-Mar-23 16:21N 46°12' W 123°23'3239.1
2017-Mar-23 15:32N 45°52' W 122°48'21584.3
2017-Mar-23 15:30N 46°10' W 123°03'0 0.3
2017-Mar-23 15:29N 46°10' W 123°03'403203.5
2017-Mar-23 15:28N 45°33' W 122°42'49428.2
2017-Mar-23 15:21N 46°12' W 123°23'1417.3
2017-Mar-23 14:33N 46°10' W 123°03'0 0.1
2017-Mar-23 14:29N 46°10' W 123°03'402883.2
2017-Mar-23 14:28N 45°33' W 122°42'19600.0
2017-Mar-23 14:26N 45°52' W 122°48'3235.9
2017-Mar-23 13:32N 46°12' W 123°23'323974.5
2017-Mar-23 13:32N 45°52' W 122°48'21597.9
2017-Mar-23 13:30N 46°10' W 123°03'0 0.4
2017-Mar-23 13:29N 46°10' W 123°03'402882.8
2017-Mar-23 13:28N 45°33' W 122°42'4043.5
2017-Mar-23 12:33N 46°10' W 123°03'211663.4
2017-Mar-23 12:32N 45°52' W 122°48'21394.5
2017-Mar-23 12:29N 46°10' W 123°03'145582.6
2017-Mar-23 12:29N 46°12' W 123°23'494270.9
2017-Mar-23 12:28N 45°33' W 122°42'4043.5
2017-Mar-23 11:33N 46°10' W 123°03'0 0.1
2017-Mar-23 11:29N 46°10' W 123°03'402826.2
2017-Mar-23 11:28N 45°33' W 122°42'19146.5
2017-Mar-23 11:20N 45°52' W 122°48'32125.1
2017-Mar-23 11:05N 46°12' W 123°23'1426.2
2017-Mar-23 10:33N 46°10' W 123°03'211628.5
2017-Mar-23 10:32N 45°52' W 122°48'32570.6
2017-Mar-23 10:29N 46°12' W 123°23'494732.2
2017-Mar-23 10:28N 45°33' W 122°42'40294.2
2017-Mar-23 10:20N 46°10' W 123°03'0 0.0
2017-Mar-23 09:33N 46°10' W 123°03'211663.9
2017-Mar-23 09:32N 45°52' W 122°48'216379.7
2017-Mar-23 09:32N 46°10' W 123°03'145582.6
2017-Mar-23 09:32N 46°12' W 123°23'49186.9
2017-Mar-23 09:16N 45°33' W 122°42'4055.5
2017-Mar-23 08:33N 46°10' W 123°03'211700.8
2017-Mar-23 08:32N 45°52' W 122°48'211822.8
2017-Mar-23 08:31N 46°10' W 123°03'40710.1
2017-Mar-23 08:28N 45°33' W 122°42'49168.5
2017-Mar-23 08:11N 46°12' W 123°23'1422.1
2017-Mar-23 07:33N 46°10' W 123°03'211562.0
2017-Mar-23 07:32N 45°52' W 122°48'212014.6
2017-Mar-23 07:31N 46°10' W 123°03'1496.3
2017-Mar-23 07:23N 46°12' W 123°23'494377.7
2017-Mar-23 07:22N 45°33' W 122°42'1923.2
2017-Mar-23 06:32N 45°52' W 122°48'21593.3
2017-Mar-23 06:30N 46°10' W 123°03'14728.2
2017-Mar-23 06:29N 46°12' W 123°23'494270.5
2017-Mar-23 06:28N 45°33' W 122°42'40900.9
2017-Mar-23 06:25N 46°10' W 123°03'1415.6
2017-Mar-23 05:32N 46°12' W 123°23'142392.5
2017-Mar-23 05:31N 46°10' W 123°03'407207.9
2017-Mar-23 05:31N 45°33' W 122°42'19584.9
2017-Mar-23 05:29N 45°52' W 122°48'21155.6
2017-Mar-23 05:21N 46°10' W 123°03'2126.2
2017-Mar-23 04:32N 45°52' W 122°48'21562.8
2017-Mar-23 04:30N 46°10' W 123°03'401359.6
2017-Mar-23 04:28N 45°33' W 122°42'40912.3
2017-Mar-23 04:25N 46°10' W 123°03'2123.9
2017-Mar-23 03:32N 45°52' W 122°48'21566.9
2017-Mar-23 03:30N 46°10' W 123°03'0 0.2
2017-Mar-23 03:28N 46°10' W 123°03'40378.4
2017-Mar-23 03:22N 45°33' W 122°42'4048.8
2017-Mar-23 02:33N 46°10' W 123°03'211594.5
2017-Mar-23 02:32N 45°52' W 122°48'212014.6
2017-Mar-23 02:31N 46°10' W 123°03'4087.8
2017-Mar-23 02:04N 45°33' W 122°42'4077.0
2017-Mar-23 01:33N 46°10' W 123°03'0 0.3
2017-Mar-23 01:31N 46°10' W 123°03'21539.1
2017-Mar-23 01:29N 45°52' W 122°48'191141.0
2017-Mar-23 01:28N 45°33' W 122°42'4043.5
2017-Mar-23 00:33N 46°10' W 123°03'0 0.3
2017-Mar-23 00:31N 46°10' W 123°03'21550.8
2017-Mar-23 00:29N 45°52' W 122°48'191087.5
2017-Mar-23 00:28N 45°33' W 122°42'49545.5
2017-Mar-23 00:23N 46°12' W 123°23'1416.3
2017-Mar-22 23:31N 46°10' W 123°03'21535.4
2017-Mar-22 23:29N 45°52' W 122°48'19165.3
2017-Mar-22 23:22N 45°33' W 122°42'40567.5
2017-Mar-22 23:18N 46°10' W 123°03'0 0.0
2017-Mar-22 22:33N 46°10' W 123°03'21335.7
2017-Mar-22 22:29N 45°52' W 122°48'325763.0
2017-Mar-22 22:29N 46°12' W 123°23'14259.0
2017-Mar-22 22:25N 46°10' W 123°03'40699.8
2017-Mar-22 22:22N 45°33' W 122°42'4957.9
2017-Mar-22 21:32N 46°12' W 123°23'144186.9
2017-Mar-22 21:31N 46°10' W 123°03'0 0.2
2017-Mar-22 21:30N 46°10' W 123°03'401347.1
2017-Mar-22 21:28N 45°33' W 122°42'19589.8
2017-Mar-22 21:26N 45°52' W 122°48'0 0.0
2017-Mar-22 20:32N 45°52' W 122°48'212187.3
2017-Mar-22 20:31N 46°10' W 123°03'0 0.1
2017-Mar-22 20:27N 46°10' W 123°03'40500.5
2017-Mar-22 20:22N 45°33' W 122°42'49543.8
2017-Mar-22 20:17N 46°12' W 123°23'3243.0
2017-Mar-22 19:32N 45°52' W 122°48'212639.9
2017-Mar-22 19:32N 46°10' W 123°03'0 0.2
2017-Mar-22 19:30N 46°10' W 123°03'401310.2
2017-Mar-22 19:28N 45°33' W 122°42'49548.9
2017-Mar-22 19:23N 46°12' W 123°23'3237.9
2017-Mar-22 18:32N 45°52' W 122°48'325238.4
2017-Mar-22 18:32N 46°12' W 123°23'142283.9
2017-Mar-22 18:31N 46°10' W 123°03'0 0.1
2017-Mar-22 18:28N 46°10' W 123°03'40370.6
2017-Mar-22 18:22N 45°33' W 122°42'1923.2
2017-Mar-22 17:32N 45°52' W 122°48'325238.4
2017-Mar-22 17:32N 46°12' W 123°23'143588.8
2017-Mar-22 17:31N 46°10' W 123°03'0 3.1
2017-Mar-22 17:31N 46°10' W 123°03'40156.8
2017-Mar-22 17:16N 45°33' W 122°42'4053.9
2017-Mar-22 16:31N 46°10' W 123°03'21513.8
2017-Mar-22 16:29N 45°52' W 122°48'32576.3
2017-Mar-22 16:26N 46°12' W 123°23'14252.5
2017-Mar-22 16:22N 46°10' W 123°03'406863.7
2017-Mar-22 16:22N 45°33' W 122°42'1923.2
2017-Mar-22 15:32N 45°52' W 122°48'212126.0
2017-Mar-22 15:31N 46°10' W 123°03'0 0.1
2017-Mar-22 15:28N 46°10' W 123°03'14144.8
2017-Mar-22 15:23N 46°12' W 123°23'494377.7
2017-Mar-22 15:22N 45°33' W 122°42'4958.0
2017-Mar-22 14:32N 46°12' W 123°23'32738.9
2017-Mar-22 14:29N 45°52' W 122°48'212392.4
2017-Mar-22 14:29N 46°10' W 123°03'0 1.4
2017-Mar-22 14:28N 46°10' W 123°03'0 0.0
2017-Mar-22 13:31N 46°10' W 123°03'21558.5
2017-Mar-22 13:29N 45°52' W 122°48'191122.9
2017-Mar-22 13:28N 45°33' W 122°42'49545.5
2017-Mar-22 13:23N 46°12' W 123°23'14263.1
2017-Mar-22 13:19N 46°10' W 123°03'0 0.0
2017-Mar-22 12:32N 46°10' W 123°03'21513.8
2017-Mar-22 12:29N 45°52' W 122°48'21343.2
2017-Mar-22 12:25N 46°10' W 123°03'40731.7
2017-Mar-22 12:22N 45°33' W 122°42'49203.1
2017-Mar-22 12:08N 46°12' W 123°23'3254.0
2017-Mar-22 11:32N 45°52' W 122°48'211700.8
2017-Mar-22 11:31N 46°10' W 123°03'0 0.1
2017-Mar-22 11:29N 46°10' W 123°03'404649.6
2017-Mar-22 11:28N 45°33' W 122°42'491268.8
2017-Mar-22 11:26N 46°12' W 123°23'0 0.0
2017-Mar-22 10:32N 46°12' W 123°23'142392.7
2017-Mar-22 10:31N 46°10' W 123°03'0 0.1
2017-Mar-22 10:29N 46°10' W 123°03'21503.7
2017-Mar-22 10:26N 45°52' W 122°48'3235.4
2017-Mar-22 09:32N 46°12' W 123°23'142644.6
2017-Mar-22 09:31N 46°10' W 123°03'21542.8
2017-Mar-22 09:29N 45°52' W 122°48'21195.8
2017-Mar-22 09:23N 46°10' W 123°03'2123.8
2017-Mar-22 08:29N 45°52' W 122°48'211822.3
2017-Mar-22 08:28N 46°10' W 123°03'14316.0
2017-Mar-22 08:26N 46°12' W 123°23'14268.7
2017-Mar-22 08:23N 46°10' W 123°03'0 0.0
2017-Mar-22 07:31N 46°10' W 123°03'0 0.9
2017-Mar-22 07:29N 46°10' W 123°03'21499.9
2017-Mar-22 07:26N 45°52' W 122°48'3235.4
2017-Mar-22 06:32N 46°12' W 123°23'147177.6
2017-Mar-22 06:32N 46°10' W 123°03'21497.1
2017-Mar-22 06:29N 45°52' W 122°48'21346.3
2017-Mar-22 06:25N 46°10' W 123°03'40112.8
2017-Mar-22 06:04N 45°33' W 122°42'1933.1
2017-Mar-22 05:29N 45°52' W 122°48'211822.3
2017-Mar-22 05:28N 46°10' W 123°03'0 0.0
2017-Mar-22 05:20N 46°10' W 123°03'2126.8
2017-Mar-22 04:32N 45°52' W 122°48'211866.8
2017-Mar-22 04:31N 46°10' W 123°03'14322.1
2017-Mar-22 04:29N 46°12' W 123°23'1410048.6
2017-Mar-22 04:29N 46°10' W 123°03'40190.9
2017-Mar-22 04:16N 45°33' W 122°42'4054.1
2017-Mar-22 03:32N 46°10' W 123°03'0 1.3
2017-Mar-22 03:31N 46°10' W 123°03'21558.5
2017-Mar-22 03:29N 45°52' W 122°48'32302.5
2017-Mar-22 03:23N 46°12' W 123°23'3237.9
2017-Mar-22 02:32N 45°52' W 122°48'213062.2
2017-Mar-22 02:32N 46°10' W 123°03'14288.8
2017-Mar-22 02:29N 46°12' W 123°23'14132.2
2017-Mar-22 02:22N 46°10' W 123°03'0 0.0
2017-Mar-22 01:32N 46°10' W 123°03'0 1.4
2017-Mar-22 01:31N 46°10' W 123°03'21550.6
2017-Mar-22 01:29N 45°52' W 122°48'32205.8
2017-Mar-22 01:20N 46°12' W 123°23'3240.3
2017-Mar-22 00:32N 45°52' W 122°48'213479.8
2017-Mar-22 00:32N 46°10' W 123°03'0 1.2
2017-Mar-22 00:31N 46°10' W 123°03'40724.3
2017-Mar-22 00:28N 45°33' W 122°42'49203.6
2017-Mar-22 00:14N 46°12' W 123°23'1419.9
2017-Mar-21 23:32N 46°10' W 123°03'0 1.1
2017-Mar-21 23:31N 46°10' W 123°03'21554.6
2017-Mar-21 23:29N 45°52' W 122°48'0 0.0
2017-Mar-21 22:29N 45°52' W 122°48'213189.8
2017-Mar-21 22:29N 46°10' W 123°03'0 0.1
2017-Mar-21 22:25N 46°10' W 123°03'407586.2
2017-Mar-21 22:25N 45°33' W 122°42'1921.9
2017-Mar-21 21:32N 45°52' W 122°48'211962.5
2017-Mar-21 21:31N 46°10' W 123°03'0 0.1
2017-Mar-21 21:29N 46°10' W 123°03'40358.6
2017-Mar-21 21:22N 45°33' W 122°42'1923.2
2017-Mar-21 20:32N 45°52' W 122°48'325763.0
2017-Mar-21 20:32N 46°12' W 123°23'142512.3
2017-Mar-21 20:31N 46°10' W 123°03'0 0.1
2017-Mar-21 20:26N 46°10' W 123°03'2123.8
2017-Mar-21 19:32N 45°52' W 122°48'213479.8
2017-Mar-21 19:32N 46°10' W 123°03'0 1.0
2017-Mar-21 19:31N 46°10' W 123°03'14316.0
2017-Mar-21 19:29N 46°12' W 123°23'49231.6
2017-Mar-21 19:16N 45°33' W 122°42'1924.7
2017-Mar-21 18:29N 45°52' W 122°48'214029.3
2017-Mar-21 18:29N 46°10' W 123°03'0 0.1
2017-Mar-21 18:25N 46°10' W 123°03'1447.4
2017-Mar-21 18:08N 46°12' W 123°23'49799.6
2017-Mar-21 18:04N 45°33' W 122°42'4073.5
2017-Mar-21 17:31N 46°10' W 123°03'21554.6
2017-Mar-21 17:29N 45°52' W 122°48'21384.7
2017-Mar-21 17:26N 46°10' W 123°03'1425121.6
2017-Mar-21 17:26N 46°12' W 123°23'3235.8
2017-Mar-21 16:32N 45°52' W 122°48'214253.1
2017-Mar-21 16:32N 46°10' W 123°03'0 1.0
2017-Mar-21 16:31N 46°10' W 123°03'2121.5
2017-Mar-21 15:32N 45°52' W 122°48'212014.1
2017-Mar-21 15:31N 46°10' W 123°03'0 0.1
2017-Mar-21 15:29N 46°10' W 123°03'14138.0
2017-Mar-21 15:23N 46°12' W 123°23'3238.0
2017-Mar-21 14:32N 45°52' W 122°48'21380.9
2017-Mar-21 14:29N 46°10' W 123°03'0 0.1
2017-Mar-21 14:25N 46°10' W 123°03'40256.9
2017-Mar-21 14:16N 45°33' W 122°42'49550.7
2017-Mar-21 14:11N 46°12' W 123°23'3249.7
2017-Mar-21 13:32N 45°52' W 122°48'213826.9
2017-Mar-21 13:32N 46°10' W 123°03'0 1.0
2017-Mar-21 13:31N 46°10' W 123°03'40112.6
2017-Mar-21 13:10N 45°33' W 122°42'4062.1
2017-Mar-21 12:31N 46°10' W 123°03'21562.8
2017-Mar-21 12:29N 45°52' W 122°48'213827.8
2017-Mar-21 12:29N 46°10' W 123°03'40188.4
2017-Mar-21 12:16N 45°33' W 122°42'1926.4
2017-Mar-21 11:32N 45°52' W 122°48'211913.4
2017-Mar-21 11:31N 46°10' W 123°03'0 0.0
2017-Mar-21 11:23N 46°10' W 123°03'14137.3
2017-Mar-21 11:17N 46°12' W 123°23'1418.7
2017-Mar-21 10:32N 46°10' W 123°03'1410048.6
2017-Mar-21 10:32N 46°12' W 123°23'142392.7
2017-Mar-21 10:31N 46°10' W 123°03'21554.6
2017-Mar-21 10:29N 45°52' W 122°48'0 0.0
2017-Mar-21 09:32N 45°52' W 122°48'215888.9
2017-Mar-21 09:32N 46°10' W 123°03'0 0.8
2017-Mar-21 09:31N 46°10' W 123°03'2121.4
2017-Mar-21 08:32N 45°52' W 122°48'213061.5
2017-Mar-21 08:31N 46°10' W 123°03'0 0.2
2017-Mar-21 08:29N 46°10' W 123°03'14238.1
2017-Mar-21 08:26N 46°12' W 123°23'1415.7
2017-Mar-21 07:32N 46°10' W 123°03'0 0.4
2017-Mar-21 07:31N 46°10' W 123°03'21150.7
2017-Mar-21 07:23N 45°52' W 122°48'3214407.5
2017-Mar-21 07:23N 46°12' W 123°23'1416.5
2017-Mar-21 06:32N 46°10' W 123°03'2176555.8
2017-Mar-21 06:32N 45°52' W 122°48'21362.7
2017-Mar-21 06:28N 46°10' W 123°03'1457.2
2017-Mar-21 06:14N 46°12' W 123°23'3245.9
2017-Mar-21 05:32N 45°52' W 122°48'21362.7
2017-Mar-21 05:28N 46°10' W 123°03'0 0.1
2017-Mar-21 05:26N 46°10' W 123°03'1439.6
2017-Mar-21 05:05N 46°12' W 123°23'1425.1
2017-Mar-21 04:31N 46°10' W 123°03'0 0.1
2017-Mar-21 04:29N 46°10' W 123°03'1416747.7
2017-Mar-21 04:29N 46°12' W 123°23'3233.7
2017-Mar-21 03:32N 45°52' W 122°48'212943.7
2017-Mar-21 03:31N 46°10' W 123°03'0 0.1
2017-Mar-21 03:29N 46°10' W 123°03'1491.7
2017-Mar-21 03:20N 46°12' W 123°23'1417.5
2017-Mar-21 02:32N 46°10' W 123°03'2110936.5
2017-Mar-21 02:32N 45°52' W 122°48'211962.5
2017-Mar-21 02:31N 46°10' W 123°03'0 0.0
2017-Mar-21 01:32N 46°10' W 123°03'2138268.6
2017-Mar-21 01:32N 45°52' W 122°48'211663.4
2017-Mar-21 01:31N 46°10' W 123°03'1458.3
2017-Mar-21 01:17N 46°12' W 123°23'49788.7
2017-Mar-21 01:13N 45°33' W 122°42'4058.5
2017-Mar-21 00:32N 46°10' W 123°03'0 0.4
2017-Mar-21 00:31N 46°10' W 123°03'21575.5
2017-Mar-21 00:29N 45°52' W 122°48'0 0.0
2017-Mar-20 23:32N 45°52' W 122°48'211297.2
2017-Mar-20 23:31N 46°10' W 123°03'0 0.2
2017-Mar-20 23:29N 46°10' W 123°03'40109.7
2017-Mar-20 23:07N 45°33' W 122°42'4068.5
2017-Mar-20 22:32N 46°10' W 123°03'2115311.2
2017-Mar-20 22:32N 45°52' W 122°48'191450.0
2017-Mar-20 22:31N 45°33' W 122°42'4016015.4
2017-Mar-20 22:31N 46°10' W 123°03'0 0.0
2017-Mar-20 21:32N 46°10' W 123°03'0 0.3
2017-Mar-20 21:31N 46°10' W 123°03'21622.3
2017-Mar-20 21:29N 45°52' W 122°48'1961.9
2017-Mar-20 21:10N 45°33' W 122°42'0 0.0
2017-Mar-20 20:31N 45°33' W 122°42'19504.2
2017-Mar-20 20:29N 45°52' W 122°48'211366.7
2017-Mar-20 20:28N 46°10' W 123°03'0 0.2
2017-Mar-20 20:26N 46°10' W 123°03'0 0.0
2017-Mar-20 19:32N 46°10' W 123°03'402621.1
2017-Mar-20 19:31N 45°33' W 122°42'4016015.4
2017-Mar-20 19:31N 46°10' W 123°03'21159.8
2017-Mar-20 19:23N 45°52' W 122°48'0 0.0
2017-Mar-20 18:32N 45°52' W 122°48'211319.6
2017-Mar-20 18:31N 46°10' W 123°03'0 0.3
2017-Mar-20 18:29N 46°10' W 123°03'40124.1
2017-Mar-20 18:10N 45°33' W 122°42'4064.0
2017-Mar-20 17:32N 46°10' W 123°03'211963.0
2017-Mar-20 17:32N 45°52' W 122°48'211319.6
2017-Mar-20 17:31N 46°10' W 123°03'40162.1
2017-Mar-20 17:16N 45°33' W 122°42'4055.1
2017-Mar-20 16:32N 46°10' W 123°03'212126.6
2017-Mar-20 16:32N 45°52' W 122°48'211275.6
2017-Mar-20 16:31N 46°10' W 123°03'1432.0
2017-Mar-20 16:05N 46°12' W 123°23'1423.4
2017-Mar-20 15:29N 46°10' W 123°03'217655.6
2017-Mar-20 15:29N 45°52' W 122°48'3223051.9
2017-Mar-20 15:29N 46°12' W 123°23'14215.7
2017-Mar-20 15:25N 46°10' W 123°03'0 0.0
2017-Mar-20 14:32N 46°10' W 123°03'216379.7
2017-Mar-20 14:32N 45°52' W 122°48'21184.9
2017-Mar-20 14:25N 46°10' W 123°03'2124.0
2017-Mar-20 13:32N 45°52' W 122°48'191450.0
2017-Mar-20 13:31N 45°33' W 122°42'4011087.6
2017-Mar-20 13:31N 46°10' W 123°03'0 0.2
2017-Mar-20 13:29N 46°10' W 123°03'0 0.0
2017-Mar-20 12:32N 46°10' W 123°03'216378.1
2017-Mar-20 12:32N 45°52' W 122°48'21183.9
2017-Mar-20 12:25N 46°10' W 123°03'40858.0
2017-Mar-20 12:22N 45°33' W 122°42'4047.0
2017-Mar-20 11:31N 46°10' W 123°03'0 0.1
2017-Mar-20 11:26N 46°10' W 123°03'216379.7
2017-Mar-20 11:26N 45°52' W 122°48'19119.1
2017-Mar-20 11:16N 45°33' W 122°42'1926.2
2017-Mar-20 10:32N 45°52' W 122°48'21458.4
2017-Mar-20 10:29N 46°10' W 123°03'0 0.1
2017-Mar-20 10:22N 46°10' W 123°03'40202.7
2017-Mar-20 10:10N 45°33' W 122°42'1930.3
2017-Mar-20 09:32N 45°52' W 122°48'211417.4
2017-Mar-20 09:31N 46°10' W 123°03'0 0.2
2017-Mar-20 09:29N 46°10' W 123°03'40344.9
2017-Mar-20 09:22N 45°33' W 122°42'4048.0
2017-Mar-20 08:32N 46°10' W 123°03'21398.7
2017-Mar-20 08:29N 45°52' W 122°48'3219210.0
2017-Mar-20 08:29N 46°12' W 123°23'14219.4
2017-Mar-20 08:25N 46°10' W 123°03'40271.4
2017-Mar-20 08:16N 45°33' W 122°42'4053.2
2017-Mar-20 07:31N 46°10' W 123°03'0 0.2
2017-Mar-20 07:29N 46°10' W 123°03'215103.7
2017-Mar-20 07:29N 45°52' W 122°48'1961.9
2017-Mar-20 07:10N 45°33' W 122°42'491233.2
2017-Mar-20 07:08N 46°12' W 123°23'3253.5
2017-Mar-20 06:32N 45°52' W 122°48'21466.8
2017-Mar-20 06:29N 46°10' W 123°03'0 0.3
2017-Mar-20 06:28N 46°10' W 123°03'1459.3
2017-Mar-20 06:14N 46°12' W 123°23'49301.4
2017-Mar-20 06:04N 45°33' W 122°42'4991.9
2017-Mar-20 05:32N 46°12' W 123°23'32546.3
2017-Mar-20 05:29N 45°52' W 122°48'21461.2
2017-Mar-20 05:26N 46°10' W 123°03'401550.1
2017-Mar-20 05:24N 45°33' W 122°42'4011087.6
2017-Mar-20 05:24N 46°10' W 123°03'0 0.0
2017-Mar-20 04:32N 46°10' W 123°03'142512.2
2017-Mar-20 04:32N 46°12' W 123°23'49803.2
2017-Mar-20 04:28N 45°33' W 122°42'19222.3
2017-Mar-20 04:23N 45°52' W 122°48'21128.2
2017-Mar-20 04:13N 46°10' W 123°03'0 0.0
2017-Mar-20 03:31N 46°10' W 123°03'21648.6
2017-Mar-20 03:29N 45°52' W 122°48'21455.7
2017-Mar-20 03:26N 46°10' W 123°03'40595.7
2017-Mar-20 03:22N 45°33' W 122°42'49550.7
2017-Mar-20 03:17N 46°12' W 123°23'1418.7
2017-Mar-20 02:32N 46°10' W 123°03'215103.7
2017-Mar-20 02:32N 45°52' W 122°48'211366.7
2017-Mar-20 02:31N 46°10' W 123°03'40863.1
2017-Mar-20 02:28N 45°33' W 122°42'49351.6
2017-Mar-20 02:20N 46°12' W 123°23'1417.6
2017-Mar-20 01:32N 46°10' W 123°03'0 0.3
2017-Mar-20 01:31N 46°10' W 123°03'40852.8
2017-Mar-20 01:28N 45°33' W 122°42'19519.4
2017-Mar-20 01:26N 45°52' W 122°48'32613.0
2017-Mar-20 01:23N 46°12' W 123°23'3237.7
2017-Mar-20 00:32N 45°52' W 122°48'211342.8
2017-Mar-20 00:31N 46°10' W 123°03'0 0.2
2017-Mar-20 00:29N 46°10' W 123°03'141932.4
2017-Mar-20 00:29N 46°12' W 123°23'494608.1
2017-Mar-20 00:28N 45°33' W 122°42'1921.1
2017-Mar-19 23:33N 45°52' W 122°48'211215.2
2017-Mar-19 23:32N 46°10' W 123°03'0 0.3
2017-Mar-19 23:31N 46°10' W 123°03'40162.3
2017-Mar-19 23:16N 45°33' W 122°42'1927.0
2017-Mar-19 22:33N 45°52' W 122°48'211297.6
2017-Mar-19 22:32N 46°10' W 123°03'0 0.3
2017-Mar-19 22:31N 46°10' W 123°03'40842.9
2017-Mar-19 22:28N 45°33' W 122°42'1921.1
2017-Mar-19 21:33N 45°52' W 122°48'211297.6
2017-Mar-19 21:32N 46°10' W 123°03'0 0.1
2017-Mar-19 21:28N 46°10' W 123°03'40416.6
2017-Mar-19 21:22N 45°33' W 122°42'1923.7
2017-Mar-19 20:33N 45°52' W 122°48'211234.8
2017-Mar-19 20:32N 46°10' W 123°03'0 0.3
2017-Mar-19 20:31N 46°10' W 123°03'40407.2
2017-Mar-19 20:25N 45°33' W 122°42'49204.3
2017-Mar-19 20:11N 46°12' W 123°23'1421.7
2017-Mar-19 19:32N 46°10' W 123°03'40588.3
2017-Mar-19 19:28N 45°33' W 122°42'191220.7
2017-Mar-19 19:27N 45°52' W 122°48'21575.5
2017-Mar-19 19:25N 46°10' W 123°03'1459.3
2017-Mar-19 19:11N 46°12' W 123°23'3251.0
2017-Mar-19 18:33N 45°52' W 122°48'19565.7
2017-Mar-19 18:31N 45°33' W 122°42'4012009.9
2017-Mar-19 18:31N 46°10' W 123°03'0 0.2
2017-Mar-19 18:29N 46°10' W 123°03'14128.2
2017-Mar-19 18:23N 46°12' W 123°23'1416.6
2017-Mar-19 17:32N 46°10' W 123°03'0 0.1
2017-Mar-19 17:28N 46°10' W 123°03'211779.9
2017-Mar-19 17:27N 45°52' W 122°48'19226.0
2017-Mar-19 17:22N 45°33' W 122°42'1922.3
2017-Mar-19 16:30N 45°52' W 122°48'211417.7
2017-Mar-19 16:29N 46°10' W 123°03'0 0.3
2017-Mar-19 16:28N 46°10' W 123°03'1475.1
2017-Mar-19 16:17N 46°12' W 123°23'49437.7
2017-Mar-19 16:10N 45°33' W 122°42'4063.4
2017-Mar-19 15:32N 46°10' W 123°03'21617.4
2017-Mar-19 15:30N 45°52' W 122°48'32262.6
2017-Mar-19 15:23N 46°12' W 123°23'14985.2
2017-Mar-19 15:22N 46°10' W 123°03'40272.5
2017-Mar-19 15:13N 45°33' W 122°42'1929.0
2017-Mar-19 14:33N 45°52' W 122°48'19580.0
2017-Mar-19 14:31N 45°33' W 122°42'401253.4
2017-Mar-19 14:29N 46°10' W 123°03'142009.9
2017-Mar-19 14:29N 46°12' W 123°23'14930.5
2017-Mar-19 14:28N 46°10' W 123°03'2123.3
2017-Mar-19 13:33N 45°52' W 122°48'211343.1
2017-Mar-19 13:32N 46°10' W 123°03'402089.3
2017-Mar-19 13:31N 45°33' W 122°42'4013103.5
2017-Mar-19 13:31N 46°10' W 123°03'14102.5
2017-Mar-19 13:23N 46°12' W 123°23'3238.7
2017-Mar-19 12:33N 45°52' W 122°48'211444.4
2017-Mar-19 12:32N 46°10' W 123°03'0 0.3
2017-Mar-19 12:31N 46°10' W 123°03'14395.6
2017-Mar-19 12:29N 46°12' W 123°23'1414.5
2017-Mar-19 11:31N 46°10' W 123°03'211471.9
2017-Mar-19 11:30N 45°52' W 122°48'211562.4
2017-Mar-19 11:29N 46°10' W 123°03'40567.6
2017-Mar-19 11:25N 45°33' W 122°42'49350.2
2017-Mar-19 11:17N 46°12' W 123°23'3244.1
2017-Mar-19 10:33N 45°52' W 122°48'211501.1
2017-Mar-19 10:32N 46°10' W 123°03'0 0.3
2017-Mar-19 10:31N 46°10' W 123°03'2122.1
2017-Mar-19 09:33N 45°52' W 122°48'211472.2
2017-Mar-19 09:32N 46°10' W 123°03'141620.7
2017-Mar-19 09:32N 46°12' W 123°23'14214.7
2017-Mar-19 09:28N 46°10' W 123°03'2123.3
2017-Mar-19 08:33N 45°52' W 122°48'321295.1
2017-Mar-19 08:32N 46°12' W 123°23'141168.5
2017-Mar-19 08:31N 46°10' W 123°03'0 0.0
2017-Mar-19 08:23N 46°10' W 123°03'2125.5
2017-Mar-19 07:33N 45°52' W 122°48'321164.2
2017-Mar-19 07:31N 46°12' W 123°23'141358.0
2017-Mar-19 07:31N 46°10' W 123°03'0 0.0
2017-Mar-19 07:23N 46°10' W 123°03'0 0.0
2017-Mar-19 06:31N 46°10' W 123°03'211739.5
2017-Mar-19 06:30N 45°52' W 122°48'211472.2
2017-Mar-19 06:29N 46°10' W 123°03'141092.2
2017-Mar-19 06:28N 46°12' W 123°23'3234.7
2017-Mar-19 05:33N 45°52' W 122°48'21579.8
2017-Mar-19 05:31N 46°10' W 123°03'0 0.2
2017-Mar-19 05:29N 46°10' W 123°03'1485.6
2017-Mar-19 05:19N 46°12' W 123°23'3241.3
2017-Mar-19 04:33N 45°52' W 122°48'21579.8
2017-Mar-19 04:31N 46°10' W 123°03'0 0.2
2017-Mar-19 04:29N 46°10' W 123°03'1453.0
2017-Mar-19 04:13N 46°12' W 123°23'3247.6
2017-Mar-19 03:33N 45°52' W 122°48'211531.1
2017-Mar-19 03:32N 46°10' W 123°03'141092.2
2017-Mar-19 03:31N 46°12' W 123°23'49454.8
2017-Mar-19 03:25N 45°33' W 122°42'4011087.6
2017-Mar-19 03:25N 46°10' W 123°03'0 0.0
2017-Mar-19 02:31N 46°10' W 123°03'0 0.2
2017-Mar-19 02:29N 46°10' W 123°03'14985.2
2017-Mar-19 02:28N 46°12' W 123°23'32438.2
2017-Mar-19 02:24N 45°52' W 122°48'19105.3
2017-Mar-19 02:13N 45°33' W 122°42'1929.0
2017-Mar-19 01:33N 45°52' W 122°48'21335.8
2017-Mar-19 01:29N 46°10' W 123°03'0 0.1
2017-Mar-19 01:25N 46°10' W 123°03'14157.0
2017-Mar-19 01:20N 46°12' W 123°23'49445.6
2017-Mar-19 01:13N 45°33' W 122°42'1929.1
2017-Mar-19 00:33N 45°52' W 122°48'211562.4
2017-Mar-19 00:32N 46°10' W 123°03'141092.2
2017-Mar-19 00:31N 46°12' W 123°23'141522.6
2017-Mar-19 00:31N 46°10' W 123°03'40269.4
2017-Mar-19 00:22N 45°33' W 122°42'1923.7
2017-Mar-18 23:33N 45°52' W 122°48'21243.0
2017-Mar-18 23:28N 46°10' W 123°03'0 0.2
2017-Mar-18 23:26N 46°10' W 123°03'14122.8
2017-Mar-18 23:19N 46°12' W 123°23'49189.1
2017-Mar-18 23:04N 45°33' W 122°42'4075.7
2017-Mar-18 22:32N 46°10' W 123°03'0 0.1
2017-Mar-18 22:28N 46°10' W 123°03'211779.9
2017-Mar-18 22:27N 45°52' W 122°48'321176.1
2017-Mar-18 22:25N 46°12' W 123°23'49189.1
2017-Mar-18 22:10N 45°33' W 122°42'1931.4
2017-Mar-18 21:33N 45°52' W 122°48'211701.2
2017-Mar-18 21:32N 46°10' W 123°03'401974.5
2017-Mar-18 21:31N 45°33' W 122°42'409607.9
2017-Mar-18 21:31N 46°10' W 123°03'1448.2
2017-Mar-18 21:13N 46°12' W 123°23'3247.5
2017-Mar-18 20:33N 45°52' W 122°48'211701.2
2017-Mar-18 20:32N 46°10' W 123°03'141025.4
2017-Mar-18 20:31N 46°12' W 123°23'14126.2
2017-Mar-18 20:25N 46°10' W 123°03'40411.8
2017-Mar-18 20:19N 45°33' W 122°42'4049.9
2017-Mar-18 19:31N 46°10' W 123°03'211628.5
2017-Mar-18 19:30N 45°52' W 122°48'21341.8
2017-Mar-18 19:26N 46°10' W 123°03'1444.3
2017-Mar-18 19:07N 46°12' W 123°23'3255.8
2017-Mar-18 18:33N 45°52' W 122°48'21575.5
2017-Mar-18 18:31N 46°10' W 123°03'0 0.2
2017-Mar-18 18:29N 46°10' W 123°03'2122.7
2017-Mar-18 17:33N 45°52' W 122°48'21571.0
2017-Mar-18 17:31N 46°10' W 123°03'0 0.2
2017-Mar-18 17:29N 46°10' W 123°03'40329.1
2017-Mar-18 17:22N 45°33' W 122°42'491137.0
2017-Mar-18 17:19N 46°12' W 123°23'3241.4
2017-Mar-18 16:33N 45°52' W 122°48'211739.5
2017-Mar-18 16:32N 46°10' W 123°03'0 0.1
2017-Mar-18 16:28N 46°10' W 123°03'40414.2
2017-Mar-18 16:22N 45°33' W 122°42'491137.1
2017-Mar-18 16:19N 46°12' W 123°23'3241.4
2017-Mar-18 15:33N 45°52' W 122°48'211963.0
2017-Mar-18 15:32N 46°10' W 123°03'14948.0
2017-Mar-18 15:32N 46°12' W 123°23'141196.3
2017-Mar-18 15:31N 46°10' W 123°03'40101.2
2017-Mar-18 15:07N 45°33' W 122°42'1934.1
2017-Mar-18 14:33N 45°52' W 122°48'19565.9
2017-Mar-18 14:31N 45°33' W 122°42'4016015.4
2017-Mar-18 14:31N 46°10' W 123°03'0 0.2
2017-Mar-18 14:29N 46°10' W 123°03'14247.5
2017-Mar-18 14:25N 46°12' W 123°23'3236.6
2017-Mar-18 13:33N 45°52' W 122°48'321213.3
2017-Mar-18 13:31N 46°12' W 123°23'496734.9
2017-Mar-18 13:31N 45°33' W 122°42'4018017.3
2017-Mar-18 13:31N 46°10' W 123°03'0 0.2
2017-Mar-18 13:29N 46°10' W 123°03'2122.9
2017-Mar-18 12:33N 45°52' W 122°48'211125.8
2017-Mar-18 12:32N 46°10' W 123°03'142009.7
2017-Mar-18 12:32N 46°12' W 123°23'141225.5
2017-Mar-18 12:31N 46°10' W 123°03'40413.0
2017-Mar-18 12:25N 45°33' W 122°42'4045.2
2017-Mar-18 11:32N 46°10' W 123°03'141794.4
2017-Mar-18 11:31N 46°12' W 123°23'141477.8
2017-Mar-18 11:31N 46°10' W 123°03'211530.7
2017-Mar-18 11:30N 45°52' W 122°48'19229.7
2017-Mar-18 11:25N 45°33' W 122°42'1922.3
2017-Mar-18 10:33N 45°52' W 122°48'321176.1
2017-Mar-18 10:31N 46°12' W 123°23'14237.0
2017-Mar-18 10:28N 46°10' W 123°03'0 0.1
2017-Mar-18 10:23N 46°10' W 123°03'2125.6
2017-Mar-18 09:33N 45°52' W 122°48'211142.6
2017-Mar-18 09:32N 46°10' W 123°03'402720.0
2017-Mar-18 09:31N 45°33' W 122°42'4013103.5
2017-Mar-18 09:31N 46°10' W 123°03'1473.2
2017-Mar-18 09:19N 46°12' W 123°23'3241.4
2017-Mar-18 08:33N 45°52' W 122°48'32423.7
2017-Mar-18 08:29N 46°12' W 123°23'141256.2
2017-Mar-18 08:28N 46°10' W 123°03'0 0.2
2017-Mar-18 08:26N 46°10' W 123°03'0 0.0
2017-Mar-18 07:32N 46°10' W 123°03'141674.8
2017-Mar-18 07:32N 46°12' W 123°23'14227.4
2017-Mar-18 07:28N 46°10' W 123°03'211500.7
2017-Mar-18 07:27N 45°52' W 122°48'3235.5
2017-Mar-18 06:33N 46°12' W 123°23'14415.3
2017-Mar-18 06:31N 46°10' W 123°03'0 0.2
2017-Mar-18 06:29N 46°10' W 123°03'21696.0
2017-Mar-18 06:27N 45°52' W 122°48'0 0.0
2017-Mar-18 05:33N 45°52' W 122°48'211093.7
2017-Mar-18 05:32N 46°10' W 123°03'14165.8
2017-Mar-18 05:27N 46°12' W 123°23'14415.3
2017-Mar-18 05:25N 46°10' W 123°03'0 0.0
2017-Mar-18 04:32N 46°10' W 123°03'0 0.3
2017-Mar-18 04:31N 46°10' W 123°03'211866.8
2017-Mar-18 04:30N 45°52' W 122°48'32208.1
2017-Mar-18 04:21N 46°12' W 123°23'3240.2
2017-Mar-18 03:33N 45°52' W 122°48'21542.8
2017-Mar-18 03:31N 46°10' W 123°03'0 0.0
2017-Mar-18 03:23N 46°10' W 123°03'14170.9
2017-Mar-18 03:18N 46°12' W 123°23'0 0.0
2017-Mar-18 02:30N 46°12' W 123°23'14418.7
2017-Mar-18 02:28N 46°10' W 123°03'211500.7
2017-Mar-18 02:27N 45°52' W 122°48'211275.9
2017-Mar-18 02:26N 46°10' W 123°03'0 0.0
2017-Mar-18 01:31N 46°10' W 123°03'141004.9
2017-Mar-18 01:30N 46°12' W 123°23'14207.6
2017-Mar-18 01:26N 46°10' W 123°03'21689.7
2017-Mar-18 01:24N 45°52' W 122°48'0 0.0
2017-Mar-18 00:33N 45°52' W 122°48'212251.6
2017-Mar-18 00:33N 46°10' W 123°03'0 0.0
2017-Mar-18 00:25N 46°10' W 123°03'14930.5
2017-Mar-18 00:24N 46°12' W 123°23'3237.7
2017-Mar-17 23:33N 45°52' W 122°48'212319.9
2017-Mar-17 23:32N 46°10' W 123°03'0 0.1
2017-Mar-17 23:28N 46°10' W 123°03'1452.6
2017-Mar-17 23:12N 46°12' W 123°23'1421.0
2017-Mar-17 22:32N 46°10' W 123°03'0 0.3
2017-Mar-17 22:31N 46°10' W 123°03'211628.5
2017-Mar-17 22:30N 45°52' W 122°48'3279.7
2017-Mar-17 22:06N 46°12' W 123°23'1424.7
2017-Mar-17 21:32N 46°10' W 123°03'  

Dump ship's entire track history